﻿<?xml version="1.0" encoding="UTF-8" standalone="no" ?>
<gpx xmlns="http://www.topografix.com/GPX/1/1" creator="CompeGPS" version="1.1" xmlns:xsi="http://www.w3.org/2001/XMLSchema-instance" xsi:schemaLocation="http://www.topografix.com/GPX/1/1 http://www.topografix.com/GPX/1/1/gpx.xsd http://www.garmin.com/xmlschemas/GpxExtensions/v3 http://www.garmin.com/xmlschemas/GpxExtensionsv3.xsd http://www.garmin.com/xmlschemas/TrackPointExtension/v1 http://www.garmin.com/xmlschemas/TrackPointExtensionv1.xsd" xmlns:gpxtpx="http://www.garmin.com/xmlschemas/TrackPointExtension/v1">
  <metadata>
    <link href="http://www.compegps.com">
      <text>CompeGPS TEAM, SL</text>
    </link>
    <time>2014-04-27T11:50:00Z</time>
    <bounds maxlat="42.778515" maxlon="0.541452" minlat="42.753166" minlon="0.521980"/>
  </metadata>
  <trk>
    <name>cecire boucle</name>
    <trkseg>
      <trkpt lat="42.778494" lon="0.531234">
        <ele>1434.2</ele>
        <time>2014-04-26T07:15:50Z</time>
      </trkpt>
      <trkpt lat="42.778414" lon="0.531162">
        <ele>1436.5</ele>
        <time>2014-04-26T07:16:13Z</time>
      </trkpt>
      <trkpt lat="42.778336" lon="0.531101">
        <ele>1439.6</ele>
        <time>2014-04-26T07:16:35Z</time>
      </trkpt>
      <trkpt lat="42.778223" lon="0.531122">
        <ele>1442.6</ele>
        <time>2014-04-26T07:16:50Z</time>
      </trkpt>
      <trkpt lat="42.778146" lon="0.531062">
        <ele>1444.7</ele>
        <time>2014-04-26T07:17:00Z</time>
      </trkpt>
      <trkpt lat="42.778070" lon="0.530996">
        <ele>1446.8</ele>
        <time>2014-04-26T07:17:13Z</time>
      </trkpt>
      <trkpt lat="42.777975" lon="0.530996">
        <ele>1448.2</ele>
        <time>2014-04-26T07:17:23Z</time>
      </trkpt>
      <trkpt lat="42.777881" lon="0.531042">
        <ele>1449.3</ele>
        <time>2014-04-26T07:17:34Z</time>
      </trkpt>
      <trkpt lat="42.777785" lon="0.531079">
        <ele>1450.6</ele>
        <time>2014-04-26T07:17:46Z</time>
      </trkpt>
      <trkpt lat="42.777713" lon="0.531169">
        <ele>1452.1</ele>
        <time>2014-04-26T07:17:57Z</time>
      </trkpt>
      <trkpt lat="42.777621" lon="0.531194">
        <ele>1453.0</ele>
        <time>2014-04-26T07:18:08Z</time>
      </trkpt>
      <trkpt lat="42.777553" lon="0.531161">
        <ele>1445.4</ele>
        <time>2014-04-26T07:18:24Z</time>
      </trkpt>
      <trkpt lat="42.777490" lon="0.531098">
        <ele>1460.3</ele>
        <time>2014-04-26T07:18:42Z</time>
      </trkpt>
      <trkpt lat="42.777404" lon="0.531091">
        <ele>1464.8</ele>
        <time>2014-04-26T07:19:00Z</time>
      </trkpt>
      <trkpt lat="42.777325" lon="0.531022">
        <ele>1467.1</ele>
        <time>2014-04-26T07:19:15Z</time>
      </trkpt>
      <trkpt lat="42.777223" lon="0.531018">
        <ele>1470.7</ele>
        <time>2014-04-26T07:19:32Z</time>
      </trkpt>
      <trkpt lat="42.777131" lon="0.531093">
        <ele>1473.6</ele>
        <time>2014-04-26T07:19:47Z</time>
      </trkpt>
      <trkpt lat="42.777048" lon="0.531128">
        <ele>1475.9</ele>
        <time>2014-04-26T07:20:02Z</time>
      </trkpt>
      <trkpt lat="42.776964" lon="0.531161">
        <ele>1479.0</ele>
        <time>2014-04-26T07:20:21Z</time>
      </trkpt>
      <trkpt lat="42.776866" lon="0.531158">
        <ele>1482.4</ele>
        <time>2014-04-26T07:20:40Z</time>
      </trkpt>
      <trkpt lat="42.776775" lon="0.531157">
        <ele>1485.2</ele>
        <time>2014-04-26T07:20:56Z</time>
      </trkpt>
      <trkpt lat="42.776692" lon="0.531135">
        <ele>1488.6</ele>
        <time>2014-04-26T07:21:13Z</time>
      </trkpt>
      <trkpt lat="42.776611" lon="0.531086">
        <ele>1492.0</ele>
        <time>2014-04-26T07:21:30Z</time>
      </trkpt>
      <trkpt lat="42.776572" lon="0.531024">
        <ele>1494.2</ele>
        <time>2014-04-26T07:21:50Z</time>
      </trkpt>
      <trkpt lat="42.776483" lon="0.530985">
        <ele>1497.0</ele>
        <time>2014-04-26T07:22:07Z</time>
      </trkpt>
      <trkpt lat="42.776390" lon="0.530978">
        <ele>1500.6</ele>
        <time>2014-04-26T07:22:24Z</time>
      </trkpt>
      <trkpt lat="42.776293" lon="0.530960">
        <ele>1503.4</ele>
        <time>2014-04-26T07:22:41Z</time>
      </trkpt>
      <trkpt lat="42.776205" lon="0.530963">
        <ele>1505.8</ele>
        <time>2014-04-26T07:22:57Z</time>
      </trkpt>
      <trkpt lat="42.776115" lon="0.530961">
        <ele>1508.3</ele>
        <time>2014-04-26T07:23:12Z</time>
      </trkpt>
      <trkpt lat="42.776016" lon="0.530978">
        <ele>1511.0</ele>
        <time>2014-04-26T07:23:30Z</time>
      </trkpt>
      <trkpt lat="42.775918" lon="0.531006">
        <ele>1512.9</ele>
        <time>2014-04-26T07:23:45Z</time>
      </trkpt>
      <trkpt lat="42.775818" lon="0.531020">
        <ele>1515.1</ele>
        <time>2014-04-26T07:24:00Z</time>
      </trkpt>
      <trkpt lat="42.775747" lon="0.530969">
        <ele>1518.0</ele>
        <time>2014-04-26T07:24:20Z</time>
      </trkpt>
      <trkpt lat="42.775664" lon="0.530913">
        <ele>1521.7</ele>
        <time>2014-04-26T07:24:42Z</time>
      </trkpt>
      <trkpt lat="42.775570" lon="0.530936">
        <ele>1525.3</ele>
        <time>2014-04-26T07:25:01Z</time>
      </trkpt>
      <trkpt lat="42.775477" lon="0.530910">
        <ele>1529.6</ele>
        <time>2014-04-26T07:25:25Z</time>
      </trkpt>
      <trkpt lat="42.775396" lon="0.530877">
        <ele>1532.4</ele>
        <time>2014-04-26T07:25:42Z</time>
      </trkpt>
      <trkpt lat="42.775322" lon="0.530831">
        <ele>1537.3</ele>
        <time>2014-04-26T07:26:06Z</time>
      </trkpt>
      <trkpt lat="42.775238" lon="0.530894">
        <ele>1539.3</ele>
        <time>2014-04-26T07:26:21Z</time>
      </trkpt>
      <trkpt lat="42.775157" lon="0.530967">
        <ele>1540.5</ele>
        <time>2014-04-26T07:26:37Z</time>
      </trkpt>
      <trkpt lat="42.775067" lon="0.531000">
        <ele>1542.3</ele>
        <time>2014-04-26T07:26:55Z</time>
      </trkpt>
      <trkpt lat="42.774984" lon="0.531003">
        <ele>1545.1</ele>
        <time>2014-04-26T07:27:11Z</time>
      </trkpt>
      <trkpt lat="42.774907" lon="0.530986">
        <ele>1548.4</ele>
        <time>2014-04-26T07:27:30Z</time>
      </trkpt>
      <trkpt lat="42.774823" lon="0.530989">
        <ele>1552.1</ele>
        <time>2014-04-26T07:27:50Z</time>
      </trkpt>
      <trkpt lat="42.774738" lon="0.531010">
        <ele>1556.4</ele>
        <time>2014-04-26T07:28:11Z</time>
      </trkpt>
      <trkpt lat="42.774654" lon="0.531071">
        <ele>1559.4</ele>
        <time>2014-04-26T07:28:27Z</time>
      </trkpt>
      <trkpt lat="42.774571" lon="0.531055">
        <ele>1562.4</ele>
        <time>2014-04-26T07:28:46Z</time>
      </trkpt>
      <trkpt lat="42.774505" lon="0.531030">
        <ele>1566.8</ele>
        <time>2014-04-26T07:29:06Z</time>
      </trkpt>
      <trkpt lat="42.774425" lon="0.531118">
        <ele>1569.1</ele>
        <time>2014-04-26T07:29:21Z</time>
      </trkpt>
      <trkpt lat="42.774332" lon="0.531153">
        <ele>1572.3</ele>
        <time>2014-04-26T07:29:37Z</time>
      </trkpt>
      <trkpt lat="42.774289" lon="0.531138">
        <ele>1574.3</ele>
        <time>2014-04-26T07:29:51Z</time>
      </trkpt>
      <trkpt lat="42.774212" lon="0.531052">
        <ele>1579.1</ele>
        <time>2014-04-26T07:30:17Z</time>
      </trkpt>
      <trkpt lat="42.774154" lon="0.530961">
        <ele>1583.4</ele>
        <time>2014-04-26T07:30:40Z</time>
      </trkpt>
      <trkpt lat="42.774106" lon="0.530980">
        <ele>1586.0</ele>
        <time>2014-04-26T07:33:58Z</time>
      </trkpt>
      <trkpt lat="42.774029" lon="0.530941">
        <ele>1589.3</ele>
        <time>2014-04-26T07:34:16Z</time>
      </trkpt>
      <trkpt lat="42.773997" lon="0.530843">
        <ele>1593.6</ele>
        <time>2014-04-26T07:34:38Z</time>
      </trkpt>
      <trkpt lat="42.773911" lon="0.530804">
        <ele>1597.1</ele>
        <time>2014-04-26T07:34:57Z</time>
      </trkpt>
      <trkpt lat="42.773825" lon="0.530777">
        <ele>1599.9</ele>
        <time>2014-04-26T07:35:15Z</time>
      </trkpt>
      <trkpt lat="42.773747" lon="0.530795">
        <ele>1603.1</ele>
        <time>2014-04-26T07:35:33Z</time>
      </trkpt>
      <trkpt lat="42.773653" lon="0.530822">
        <ele>1605.1</ele>
        <time>2014-04-26T07:35:49Z</time>
      </trkpt>
      <trkpt lat="42.773569" lon="0.530890">
        <ele>1607.8</ele>
        <time>2014-04-26T07:36:04Z</time>
      </trkpt>
      <trkpt lat="42.773487" lon="0.530983">
        <ele>1610.1</ele>
        <time>2014-04-26T07:36:17Z</time>
      </trkpt>
      <trkpt lat="42.773403" lon="0.531046">
        <ele>1612.4</ele>
        <time>2014-04-26T07:36:31Z</time>
      </trkpt>
      <trkpt lat="42.773307" lon="0.531080">
        <ele>1615.4</ele>
        <time>2014-04-26T07:36:47Z</time>
      </trkpt>
      <trkpt lat="42.773221" lon="0.531137">
        <ele>1618.1</ele>
        <time>2014-04-26T07:37:01Z</time>
      </trkpt>
      <trkpt lat="42.773122" lon="0.531206">
        <ele>1620.2</ele>
        <time>2014-04-26T07:37:14Z</time>
      </trkpt>
      <trkpt lat="42.773035" lon="0.531261">
        <ele>1621.8</ele>
        <time>2014-04-26T07:37:26Z</time>
      </trkpt>
      <trkpt lat="42.772938" lon="0.531286">
        <ele>1624.1</ele>
        <time>2014-04-26T07:37:40Z</time>
      </trkpt>
      <trkpt lat="42.772848" lon="0.531302">
        <ele>1626.3</ele>
        <time>2014-04-26T07:37:52Z</time>
      </trkpt>
      <trkpt lat="42.772760" lon="0.531338">
        <ele>1628.2</ele>
        <time>2014-04-26T07:38:04Z</time>
      </trkpt>
      <trkpt lat="42.772670" lon="0.531366">
        <ele>1629.7</ele>
        <time>2014-04-26T07:38:15Z</time>
      </trkpt>
      <trkpt lat="42.772586" lon="0.531379">
        <ele>1630.9</ele>
        <time>2014-04-26T07:38:26Z</time>
      </trkpt>
      <trkpt lat="42.772493" lon="0.531404">
        <ele>1632.2</ele>
        <time>2014-04-26T07:38:38Z</time>
      </trkpt>
      <trkpt lat="42.772388" lon="0.531380">
        <ele>1633.5</ele>
        <time>2014-04-26T07:38:51Z</time>
      </trkpt>
      <trkpt lat="42.772302" lon="0.531350">
        <ele>1634.8</ele>
        <time>2014-04-26T07:39:05Z</time>
      </trkpt>
      <trkpt lat="42.772214" lon="0.531304">
        <ele>1637.5</ele>
        <time>2014-04-26T07:39:21Z</time>
      </trkpt>
      <trkpt lat="42.772116" lon="0.531291">
        <ele>1640.4</ele>
        <time>2014-04-26T07:39:37Z</time>
      </trkpt>
      <trkpt lat="42.772017" lon="0.531310">
        <ele>1641.9</ele>
        <time>2014-04-26T07:39:52Z</time>
      </trkpt>
      <trkpt lat="42.771926" lon="0.531376">
        <ele>1642.7</ele>
        <time>2014-04-26T07:40:03Z</time>
      </trkpt>
      <trkpt lat="42.771837" lon="0.531415">
        <ele>1643.4</ele>
        <time>2014-04-26T07:40:15Z</time>
      </trkpt>
      <trkpt lat="42.771743" lon="0.531454">
        <ele>1644.0</ele>
        <time>2014-04-26T07:40:28Z</time>
      </trkpt>
      <trkpt lat="42.771651" lon="0.531497">
        <ele>1645.1</ele>
        <time>2014-04-26T07:40:40Z</time>
      </trkpt>
      <trkpt lat="42.771559" lon="0.531535">
        <ele>1646.2</ele>
        <time>2014-04-26T07:40:53Z</time>
      </trkpt>
      <trkpt lat="42.771472" lon="0.531618">
        <ele>1647.5</ele>
        <time>2014-04-26T07:41:08Z</time>
      </trkpt>
      <trkpt lat="42.771391" lon="0.531698">
        <ele>1648.4</ele>
        <time>2014-04-26T07:41:20Z</time>
      </trkpt>
      <trkpt lat="42.771316" lon="0.531778">
        <ele>1649.5</ele>
        <time>2014-04-26T07:41:33Z</time>
      </trkpt>
      <trkpt lat="42.771228" lon="0.531846">
        <ele>1650.8</ele>
        <time>2014-04-26T07:41:48Z</time>
      </trkpt>
      <trkpt lat="42.771140" lon="0.531898">
        <ele>1652.2</ele>
        <time>2014-04-26T07:42:01Z</time>
      </trkpt>
      <trkpt lat="42.771052" lon="0.531962">
        <ele>1653.9</ele>
        <time>2014-04-26T07:42:17Z</time>
      </trkpt>
      <trkpt lat="42.770970" lon="0.531970">
        <ele>1655.9</ele>
        <time>2014-04-26T07:42:32Z</time>
      </trkpt>
      <trkpt lat="42.770881" lon="0.531981">
        <ele>1658.6</ele>
        <time>2014-04-26T07:42:48Z</time>
      </trkpt>
      <trkpt lat="42.770825" lon="0.531967">
        <ele>1660.8</ele>
        <time>2014-04-26T07:43:04Z</time>
      </trkpt>
      <trkpt lat="42.770763" lon="0.531912">
        <ele>1665.5</ele>
        <time>2014-04-26T07:43:27Z</time>
      </trkpt>
      <trkpt lat="42.770672" lon="0.531916">
        <ele>1668.3</ele>
        <time>2014-04-26T07:43:47Z</time>
      </trkpt>
      <trkpt lat="42.770600" lon="0.531848">
        <ele>1672.9</ele>
        <time>2014-04-26T07:44:15Z</time>
      </trkpt>
      <trkpt lat="42.770536" lon="0.531837">
        <ele>1676.2</ele>
        <time>2014-04-26T07:44:36Z</time>
      </trkpt>
      <trkpt lat="42.770465" lon="0.531795">
        <ele>1679.3</ele>
        <time>2014-04-26T07:44:55Z</time>
      </trkpt>
      <trkpt lat="42.770375" lon="0.531825">
        <ele>1682.1</ele>
        <time>2014-04-26T07:45:11Z</time>
      </trkpt>
      <trkpt lat="42.770291" lon="0.531829">
        <ele>1684.7</ele>
        <time>2014-04-26T07:45:29Z</time>
      </trkpt>
      <trkpt lat="42.770214" lon="0.531777">
        <ele>1688.2</ele>
        <time>2014-04-26T07:45:48Z</time>
      </trkpt>
      <trkpt lat="42.770108" lon="0.531787">
        <ele>1690.8</ele>
        <time>2014-04-26T07:46:02Z</time>
      </trkpt>
      <trkpt lat="42.770012" lon="0.531789">
        <ele>1693.4</ele>
        <time>2014-04-26T07:46:17Z</time>
      </trkpt>
      <trkpt lat="42.769925" lon="0.531771">
        <ele>1697.1</ele>
        <time>2014-04-26T07:46:37Z</time>
      </trkpt>
      <trkpt lat="42.769834" lon="0.531769">
        <ele>1699.6</ele>
        <time>2014-04-26T07:46:52Z</time>
      </trkpt>
      <trkpt lat="42.769734" lon="0.531732">
        <ele>1703.2</ele>
        <time>2014-04-26T07:47:09Z</time>
      </trkpt>
      <trkpt lat="42.769652" lon="0.531690">
        <ele>1705.8</ele>
        <time>2014-04-26T07:47:23Z</time>
      </trkpt>
      <trkpt lat="42.769568" lon="0.531666">
        <ele>1708.7</ele>
        <time>2014-04-26T07:47:39Z</time>
      </trkpt>
      <trkpt lat="42.769481" lon="0.531611">
        <ele>1710.9</ele>
        <time>2014-04-26T07:47:53Z</time>
      </trkpt>
      <trkpt lat="42.769399" lon="0.531517">
        <ele>1715.0</ele>
        <time>2014-04-26T07:48:13Z</time>
      </trkpt>
      <trkpt lat="42.769303" lon="0.531487">
        <ele>1718.8</ele>
        <time>2014-04-26T07:48:29Z</time>
      </trkpt>
      <trkpt lat="42.769218" lon="0.531465">
        <ele>1721.6</ele>
        <time>2014-04-26T07:48:43Z</time>
      </trkpt>
      <trkpt lat="42.769231" lon="0.531337">
        <ele>1724.8</ele>
        <time>2014-04-26T07:48:58Z</time>
      </trkpt>
      <trkpt lat="42.769196" lon="0.531354">
        <ele>1726.1</ele>
        <time>2014-04-26T07:49:32Z</time>
      </trkpt>
      <trkpt lat="42.769204" lon="0.531328">
        <ele>1726.2</ele>
        <time>2014-04-26T07:49:50Z</time>
      </trkpt>
      <trkpt lat="42.769217" lon="0.531336">
        <ele>1725.7</ele>
        <time>2014-04-26T07:50:38Z</time>
      </trkpt>
      <trkpt lat="42.769196" lon="0.531316">
        <ele>1726.7</ele>
        <time>2014-04-26T07:53:03Z</time>
      </trkpt>
      <trkpt lat="42.769189" lon="0.531261">
        <ele>1727.2</ele>
        <time>2014-04-26T07:53:53Z</time>
      </trkpt>
      <trkpt lat="42.769145" lon="0.531184">
        <ele>1728.8</ele>
        <time>2014-04-26T07:54:08Z</time>
      </trkpt>
      <trkpt lat="42.769069" lon="0.531117">
        <ele>1729.8</ele>
        <time>2014-04-26T07:54:22Z</time>
      </trkpt>
      <trkpt lat="42.768995" lon="0.531065">
        <ele>1730.8</ele>
        <time>2014-04-26T07:54:35Z</time>
      </trkpt>
      <trkpt lat="42.768912" lon="0.530998">
        <ele>1731.5</ele>
        <time>2014-04-26T07:54:49Z</time>
      </trkpt>
      <trkpt lat="42.768821" lon="0.530961">
        <ele>1732.4</ele>
        <time>2014-04-26T07:55:01Z</time>
      </trkpt>
      <trkpt lat="42.768731" lon="0.530929">
        <ele>1733.2</ele>
        <time>2014-04-26T07:55:13Z</time>
      </trkpt>
      <trkpt lat="42.768650" lon="0.530879">
        <ele>1733.7</ele>
        <time>2014-04-26T07:55:24Z</time>
      </trkpt>
      <trkpt lat="42.768548" lon="0.530859">
        <ele>1734.2</ele>
        <time>2014-04-26T07:55:35Z</time>
      </trkpt>
      <trkpt lat="42.768465" lon="0.530834">
        <ele>1734.8</ele>
        <time>2014-04-26T07:55:48Z</time>
      </trkpt>
      <trkpt lat="42.768374" lon="0.530787">
        <ele>1736.4</ele>
        <time>2014-04-26T07:56:03Z</time>
      </trkpt>
      <trkpt lat="42.768297" lon="0.530742">
        <ele>1739.1</ele>
        <time>2014-04-26T07:56:24Z</time>
      </trkpt>
      <trkpt lat="42.768175" lon="0.530764">
        <ele>1741.2</ele>
        <time>2014-04-26T07:56:42Z</time>
      </trkpt>
      <trkpt lat="42.768111" lon="0.530714">
        <ele>1742.3</ele>
        <time>2014-04-26T07:56:55Z</time>
      </trkpt>
      <trkpt lat="42.768006" lon="0.530718">
        <ele>1743.3</ele>
        <time>2014-04-26T07:57:19Z</time>
      </trkpt>
      <trkpt lat="42.767937" lon="0.530693">
        <ele>1744.0</ele>
        <time>2014-04-26T07:57:33Z</time>
      </trkpt>
      <trkpt lat="42.767847" lon="0.530704">
        <ele>1745.6</ele>
        <time>2014-04-26T07:57:50Z</time>
      </trkpt>
      <trkpt lat="42.767752" lon="0.530727">
        <ele>1747.0</ele>
        <time>2014-04-26T07:58:08Z</time>
      </trkpt>
      <trkpt lat="42.767679" lon="0.530688">
        <ele>1748.1</ele>
        <time>2014-04-26T07:58:25Z</time>
      </trkpt>
      <trkpt lat="42.767601" lon="0.530715">
        <ele>1749.1</ele>
        <time>2014-04-26T07:58:46Z</time>
      </trkpt>
      <trkpt lat="42.767510" lon="0.530732">
        <ele>1751.1</ele>
        <time>2014-04-26T07:59:04Z</time>
      </trkpt>
      <trkpt lat="42.767416" lon="0.530739">
        <ele>1752.1</ele>
        <time>2014-04-26T07:59:16Z</time>
      </trkpt>
      <trkpt lat="42.767334" lon="0.530744">
        <ele>1753.7</ele>
        <time>2014-04-26T07:59:30Z</time>
      </trkpt>
      <trkpt lat="42.767294" lon="0.530629">
        <ele>1756.2</ele>
        <time>2014-04-26T07:59:48Z</time>
      </trkpt>
      <trkpt lat="42.767209" lon="0.530579">
        <ele>1759.7</ele>
        <time>2014-04-26T08:00:06Z</time>
      </trkpt>
      <trkpt lat="42.767121" lon="0.530533">
        <ele>1761.8</ele>
        <time>2014-04-26T08:00:22Z</time>
      </trkpt>
      <trkpt lat="42.767083" lon="0.530474">
        <ele>1763.9</ele>
        <time>2014-04-26T08:00:51Z</time>
      </trkpt>
      <trkpt lat="42.767012" lon="0.530424">
        <ele>1764.9</ele>
        <time>2014-04-26T08:01:52Z</time>
      </trkpt>
      <trkpt lat="42.766998" lon="0.530317">
        <ele>1769.4</ele>
        <time>2014-04-26T08:02:13Z</time>
      </trkpt>
      <trkpt lat="42.766966" lon="0.530224">
        <ele>1773.3</ele>
        <time>2014-04-26T08:02:32Z</time>
      </trkpt>
      <trkpt lat="42.766896" lon="0.530131">
        <ele>1777.6</ele>
        <time>2014-04-26T08:02:52Z</time>
      </trkpt>
      <trkpt lat="42.766806" lon="0.530091">
        <ele>1781.4</ele>
        <time>2014-04-26T08:03:13Z</time>
      </trkpt>
      <trkpt lat="42.766713" lon="0.530068">
        <ele>1785.4</ele>
        <time>2014-04-26T08:03:33Z</time>
      </trkpt>
      <trkpt lat="42.766662" lon="0.529997">
        <ele>1788.6</ele>
        <time>2014-04-26T08:03:51Z</time>
      </trkpt>
      <trkpt lat="42.766624" lon="0.529934">
        <ele>1793.1</ele>
        <time>2014-04-26T08:04:12Z</time>
      </trkpt>
      <trkpt lat="42.766628" lon="0.529797">
        <ele>1797.5</ele>
        <time>2014-04-26T08:04:34Z</time>
      </trkpt>
      <trkpt lat="42.766594" lon="0.529716">
        <ele>1801.9</ele>
        <time>2014-04-26T08:04:56Z</time>
      </trkpt>
      <trkpt lat="42.766585" lon="0.529637">
        <ele>1806.2</ele>
        <time>2014-04-26T08:05:23Z</time>
      </trkpt>
      <trkpt lat="42.766592" lon="0.529533">
        <ele>1809.7</ele>
        <time>2014-04-26T08:05:44Z</time>
      </trkpt>
      <trkpt lat="42.766544" lon="0.529449">
        <ele>1814.8</ele>
        <time>2014-04-26T08:06:12Z</time>
      </trkpt>
      <trkpt lat="42.766498" lon="0.529351">
        <ele>1819.4</ele>
        <time>2014-04-26T08:06:38Z</time>
      </trkpt>
      <trkpt lat="42.766529" lon="0.529241">
        <ele>1824.3</ele>
        <time>2014-04-26T08:07:05Z</time>
      </trkpt>
      <trkpt lat="42.766492" lon="0.529149">
        <ele>1828.4</ele>
        <time>2014-04-26T08:07:35Z</time>
      </trkpt>
      <trkpt lat="42.766496" lon="0.529029">
        <ele>1832.9</ele>
        <time>2014-04-26T08:07:57Z</time>
      </trkpt>
      <trkpt lat="42.766473" lon="0.528941">
        <ele>1837.1</ele>
        <time>2014-04-26T08:08:19Z</time>
      </trkpt>
      <trkpt lat="42.766460" lon="0.528836">
        <ele>1841.5</ele>
        <time>2014-04-26T08:08:41Z</time>
      </trkpt>
      <trkpt lat="42.766410" lon="0.528783">
        <ele>1844.9</ele>
        <time>2014-04-26T08:09:00Z</time>
      </trkpt>
      <trkpt lat="42.766349" lon="0.528716">
        <ele>1849.7</ele>
        <time>2014-04-26T08:09:27Z</time>
      </trkpt>
      <trkpt lat="42.766287" lon="0.528648">
        <ele>1852.8</ele>
        <time>2014-04-26T08:09:47Z</time>
      </trkpt>
      <trkpt lat="42.766210" lon="0.528604">
        <ele>1856.3</ele>
        <time>2014-04-26T08:10:08Z</time>
      </trkpt>
      <trkpt lat="42.766128" lon="0.528548">
        <ele>1860.7</ele>
        <time>2014-04-26T08:10:32Z</time>
      </trkpt>
      <trkpt lat="42.766052" lon="0.528502">
        <ele>1864.5</ele>
        <time>2014-04-26T08:10:58Z</time>
      </trkpt>
      <trkpt lat="42.766020" lon="0.528416">
        <ele>1868.3</ele>
        <time>2014-04-26T08:11:21Z</time>
      </trkpt>
      <trkpt lat="42.765938" lon="0.528400">
        <ele>1871.7</ele>
        <time>2014-04-26T08:11:41Z</time>
      </trkpt>
      <trkpt lat="42.765886" lon="0.528358">
        <ele>1874.8</ele>
        <time>2014-04-26T08:12:03Z</time>
      </trkpt>
      <trkpt lat="42.765894" lon="0.528307">
        <ele>1875.5</ele>
        <time>2014-04-26T08:20:18Z</time>
      </trkpt>
      <trkpt lat="42.765885" lon="0.528341">
        <ele>1875.6</ele>
        <time>2014-04-26T08:21:14Z</time>
      </trkpt>
      <trkpt lat="42.765809" lon="0.528352">
        <ele>1876.5</ele>
        <time>2014-04-26T08:22:00Z</time>
      </trkpt>
      <trkpt lat="42.765745" lon="0.528295">
        <ele>1879.9</ele>
        <time>2014-04-26T08:23:00Z</time>
      </trkpt>
      <trkpt lat="42.765701" lon="0.528188">
        <ele>1882.5</ele>
        <time>2014-04-26T08:23:19Z</time>
      </trkpt>
      <trkpt lat="42.765619" lon="0.528099">
        <ele>1884.9</ele>
        <time>2014-04-26T08:23:38Z</time>
      </trkpt>
      <trkpt lat="42.765551" lon="0.528001">
        <ele>1887.0</ele>
        <time>2014-04-26T08:23:54Z</time>
      </trkpt>
      <trkpt lat="42.765531" lon="0.527877">
        <ele>1890.4</ele>
        <time>2014-04-26T08:24:14Z</time>
      </trkpt>
      <trkpt lat="42.765476" lon="0.527785">
        <ele>1893.3</ele>
        <time>2014-04-26T08:24:33Z</time>
      </trkpt>
      <trkpt lat="42.765472" lon="0.527659">
        <ele>1896.6</ele>
        <time>2014-04-26T08:24:55Z</time>
      </trkpt>
      <trkpt lat="42.765523" lon="0.527552">
        <ele>1900.5</ele>
        <time>2014-04-26T08:25:13Z</time>
      </trkpt>
      <trkpt lat="42.765517" lon="0.527461">
        <ele>1905.2</ele>
        <time>2014-04-26T08:25:39Z</time>
      </trkpt>
      <trkpt lat="42.765499" lon="0.527369">
        <ele>1909.3</ele>
        <time>2014-04-26T08:26:04Z</time>
      </trkpt>
      <trkpt lat="42.765536" lon="0.527260">
        <ele>1914.2</ele>
        <time>2014-04-26T08:26:28Z</time>
      </trkpt>
      <trkpt lat="42.765479" lon="0.527171">
        <ele>1917.0</ele>
        <time>2014-04-26T08:26:48Z</time>
      </trkpt>
      <trkpt lat="42.765399" lon="0.527111">
        <ele>1920.1</ele>
        <time>2014-04-26T08:27:09Z</time>
      </trkpt>
      <trkpt lat="42.765343" lon="0.527012">
        <ele>1922.4</ele>
        <time>2014-04-26T08:27:26Z</time>
      </trkpt>
      <trkpt lat="42.765294" lon="0.526944">
        <ele>1924.9</ele>
        <time>2014-04-26T08:27:45Z</time>
      </trkpt>
      <trkpt lat="42.765292" lon="0.526818">
        <ele>1928.5</ele>
        <time>2014-04-26T08:28:05Z</time>
      </trkpt>
      <trkpt lat="42.765258" lon="0.526713">
        <ele>1932.7</ele>
        <time>2014-04-26T08:28:26Z</time>
      </trkpt>
      <trkpt lat="42.765254" lon="0.526582">
        <ele>1936.8</ele>
        <time>2014-04-26T08:28:47Z</time>
      </trkpt>
      <trkpt lat="42.765212" lon="0.526508">
        <ele>1940.0</ele>
        <time>2014-04-26T08:29:07Z</time>
      </trkpt>
      <trkpt lat="42.765154" lon="0.526441">
        <ele>1945.6</ele>
        <time>2014-04-26T08:29:27Z</time>
      </trkpt>
      <trkpt lat="42.765155" lon="0.526324">
        <ele>1949.8</ele>
        <time>2014-04-26T08:29:44Z</time>
      </trkpt>
      <trkpt lat="42.765120" lon="0.526294">
        <ele>1953.0</ele>
        <time>2014-04-26T08:30:37Z</time>
      </trkpt>
      <trkpt lat="42.765059" lon="0.526230">
        <ele>1954.6</ele>
        <time>2014-04-26T08:31:03Z</time>
      </trkpt>
      <trkpt lat="42.765017" lon="0.526114">
        <ele>1958.0</ele>
        <time>2014-04-26T08:31:24Z</time>
      </trkpt>
      <trkpt lat="42.764983" lon="0.525987">
        <ele>1961.6</ele>
        <time>2014-04-26T08:31:46Z</time>
      </trkpt>
      <trkpt lat="42.764926" lon="0.525961">
        <ele>1966.0</ele>
        <time>2014-04-26T08:32:11Z</time>
      </trkpt>
      <trkpt lat="42.764867" lon="0.525940">
        <ele>1968.1</ele>
        <time>2014-04-26T08:32:27Z</time>
      </trkpt>
      <trkpt lat="42.764791" lon="0.525904">
        <ele>1971.8</ele>
        <time>2014-04-26T08:32:48Z</time>
      </trkpt>
      <trkpt lat="42.764751" lon="0.525793">
        <ele>1975.5</ele>
        <time>2014-04-26T08:33:12Z</time>
      </trkpt>
      <trkpt lat="42.764707" lon="0.525740">
        <ele>1977.1</ele>
        <time>2014-04-26T08:33:43Z</time>
      </trkpt>
      <trkpt lat="42.764648" lon="0.525652">
        <ele>1981.8</ele>
        <time>2014-04-26T08:34:03Z</time>
      </trkpt>
      <trkpt lat="42.764603" lon="0.525635">
        <ele>1984.0</ele>
        <time>2014-04-26T08:35:10Z</time>
      </trkpt>
      <trkpt lat="42.764523" lon="0.525585">
        <ele>1987.9</ele>
        <time>2014-04-26T08:35:27Z</time>
      </trkpt>
      <trkpt lat="42.764462" lon="0.525534">
        <ele>1991.5</ele>
        <time>2014-04-26T08:35:43Z</time>
      </trkpt>
      <trkpt lat="42.764408" lon="0.525495">
        <ele>1995.8</ele>
        <time>2014-04-26T08:36:01Z</time>
      </trkpt>
      <trkpt lat="42.764341" lon="0.525464">
        <ele>2000.7</ele>
        <time>2014-04-26T08:36:22Z</time>
      </trkpt>
      <trkpt lat="42.764282" lon="0.525420">
        <ele>2005.8</ele>
        <time>2014-04-26T08:36:51Z</time>
      </trkpt>
      <trkpt lat="42.764193" lon="0.525395">
        <ele>2009.6</ele>
        <time>2014-04-26T08:37:10Z</time>
      </trkpt>
      <trkpt lat="42.764109" lon="0.525343">
        <ele>2013.9</ele>
        <time>2014-04-26T08:37:29Z</time>
      </trkpt>
      <trkpt lat="42.764095" lon="0.525357">
        <ele>2017.2</ele>
        <time>2014-04-26T08:38:07Z</time>
      </trkpt>
      <trkpt lat="42.764127" lon="0.525352">
        <ele>2017.4</ele>
        <time>2014-04-26T08:38:54Z</time>
      </trkpt>
      <trkpt lat="42.764127" lon="0.525357">
        <ele>2017.4</ele>
        <time>2014-04-26T08:39:27Z</time>
      </trkpt>
      <trkpt lat="42.764098" lon="0.525342">
        <ele>2017.4</ele>
        <time>2014-04-26T08:39:57Z</time>
      </trkpt>
      <trkpt lat="42.764017" lon="0.525363">
        <ele>2018.1</ele>
        <time>2014-04-26T08:40:22Z</time>
      </trkpt>
      <trkpt lat="42.763920" lon="0.525424">
        <ele>2019.8</ele>
        <time>2014-04-26T08:40:35Z</time>
      </trkpt>
      <trkpt lat="42.763811" lon="0.525450">
        <ele>2022.6</ele>
        <time>2014-04-26T08:40:49Z</time>
      </trkpt>
      <trkpt lat="42.763722" lon="0.525480">
        <ele>2024.7</ele>
        <time>2014-04-26T08:41:02Z</time>
      </trkpt>
      <trkpt lat="42.763630" lon="0.525523">
        <ele>2026.9</ele>
        <time>2014-04-26T08:41:17Z</time>
      </trkpt>
      <trkpt lat="42.763526" lon="0.525528">
        <ele>2029.5</ele>
        <time>2014-04-26T08:41:32Z</time>
      </trkpt>
      <trkpt lat="42.763425" lon="0.525476">
        <ele>2031.9</ele>
        <time>2014-04-26T08:41:46Z</time>
      </trkpt>
      <trkpt lat="42.763365" lon="0.525396">
        <ele>2034.8</ele>
        <time>2014-04-26T08:42:02Z</time>
      </trkpt>
      <trkpt lat="42.763321" lon="0.525316">
        <ele>2037.0</ele>
        <time>2014-04-26T08:42:29Z</time>
      </trkpt>
      <trkpt lat="42.763290" lon="0.525287">
        <ele>2038.6</ele>
        <time>2014-04-26T08:42:49Z</time>
      </trkpt>
      <trkpt lat="42.763255" lon="0.525223">
        <ele>2039.2</ele>
        <time>2014-04-26T08:43:32Z</time>
      </trkpt>
      <trkpt lat="42.763172" lon="0.525197">
        <ele>2042.7</ele>
        <time>2014-04-26T08:43:49Z</time>
      </trkpt>
      <trkpt lat="42.763099" lon="0.525212">
        <ele>2047.1</ele>
        <time>2014-04-26T08:44:07Z</time>
      </trkpt>
      <trkpt lat="42.763013" lon="0.525178">
        <ele>2052.1</ele>
        <time>2014-04-26T08:44:33Z</time>
      </trkpt>
      <trkpt lat="42.762929" lon="0.525172">
        <ele>2055.6</ele>
        <time>2014-04-26T08:44:52Z</time>
      </trkpt>
      <trkpt lat="42.762923" lon="0.525125">
        <ele>2058.7</ele>
        <time>2014-04-26T08:45:34Z</time>
      </trkpt>
      <trkpt lat="42.762891" lon="0.525039">
        <ele>2059.5</ele>
        <time>2014-04-26T08:46:08Z</time>
      </trkpt>
      <trkpt lat="42.762875" lon="0.524921">
        <ele>2062.0</ele>
        <time>2014-04-26T08:46:24Z</time>
      </trkpt>
      <trkpt lat="42.762840" lon="0.524804">
        <ele>2064.8</ele>
        <time>2014-04-26T08:46:40Z</time>
      </trkpt>
      <trkpt lat="42.762810" lon="0.524689">
        <ele>2067.9</ele>
        <time>2014-04-26T08:46:57Z</time>
      </trkpt>
      <trkpt lat="42.762791" lon="0.524569">
        <ele>2071.2</ele>
        <time>2014-04-26T08:47:16Z</time>
      </trkpt>
      <trkpt lat="42.762761" lon="0.524446">
        <ele>2075.6</ele>
        <time>2014-04-26T08:47:43Z</time>
      </trkpt>
      <trkpt lat="42.762707" lon="0.524345">
        <ele>2077.1</ele>
        <time>2014-04-26T08:48:00Z</time>
      </trkpt>
      <trkpt lat="42.762639" lon="0.524263">
        <ele>2078.9</ele>
        <time>2014-04-26T08:48:17Z</time>
      </trkpt>
      <trkpt lat="42.762555" lon="0.524198">
        <ele>2082.3</ele>
        <time>2014-04-26T08:48:36Z</time>
      </trkpt>
      <trkpt lat="42.762487" lon="0.524123">
        <ele>2086.8</ele>
        <time>2014-04-26T08:48:57Z</time>
      </trkpt>
      <trkpt lat="42.762419" lon="0.524055">
        <ele>2090.6</ele>
        <time>2014-04-26T08:49:17Z</time>
      </trkpt>
      <trkpt lat="42.762374" lon="0.523962">
        <ele>2094.6</ele>
        <time>2014-04-26T08:49:39Z</time>
      </trkpt>
      <trkpt lat="42.762321" lon="0.523857">
        <ele>2098.6</ele>
        <time>2014-04-26T08:50:01Z</time>
      </trkpt>
      <trkpt lat="42.762293" lon="0.523745">
        <ele>2101.1</ele>
        <time>2014-04-26T08:50:18Z</time>
      </trkpt>
      <trkpt lat="42.762221" lon="0.523657">
        <ele>2104.0</ele>
        <time>2014-04-26T08:50:37Z</time>
      </trkpt>
      <trkpt lat="42.762164" lon="0.523561">
        <ele>2106.5</ele>
        <time>2014-04-26T08:50:55Z</time>
      </trkpt>
      <trkpt lat="42.762095" lon="0.523485">
        <ele>2109.8</ele>
        <time>2014-04-26T08:51:15Z</time>
      </trkpt>
      <trkpt lat="42.762034" lon="0.523401">
        <ele>2113.4</ele>
        <time>2014-04-26T08:51:37Z</time>
      </trkpt>
      <trkpt lat="42.761999" lon="0.523290">
        <ele>2117.5</ele>
        <time>2014-04-26T08:52:00Z</time>
      </trkpt>
      <trkpt lat="42.761946" lon="0.523211">
        <ele>2121.7</ele>
        <time>2014-04-26T08:52:26Z</time>
      </trkpt>
      <trkpt lat="42.761869" lon="0.523168">
        <ele>2126.4</ele>
        <time>2014-04-26T08:52:51Z</time>
      </trkpt>
      <trkpt lat="42.761841" lon="0.523057">
        <ele>2130.7</ele>
        <time>2014-04-26T08:53:17Z</time>
      </trkpt>
      <trkpt lat="42.761758" lon="0.523012">
        <ele>2136.2</ele>
        <time>2014-04-26T08:53:52Z</time>
      </trkpt>
      <trkpt lat="42.761721" lon="0.522908">
        <ele>2139.1</ele>
        <time>2014-04-26T08:54:11Z</time>
      </trkpt>
      <trkpt lat="42.761724" lon="0.522782">
        <ele>2142.6</ele>
        <time>2014-04-26T08:54:33Z</time>
      </trkpt>
      <trkpt lat="42.761722" lon="0.522658">
        <ele>2146.5</ele>
        <time>2014-04-26T08:55:01Z</time>
      </trkpt>
      <trkpt lat="42.761685" lon="0.522552">
        <ele>2149.4</ele>
        <time>2014-04-26T08:55:35Z</time>
      </trkpt>
      <trkpt lat="42.761646" lon="0.522435">
        <ele>2151.4</ele>
        <time>2014-04-26T08:55:54Z</time>
      </trkpt>
      <trkpt lat="42.761621" lon="0.522322">
        <ele>2153.6</ele>
        <time>2014-04-26T08:56:11Z</time>
      </trkpt>
      <trkpt lat="42.761592" lon="0.522216">
        <ele>2157.2</ele>
        <time>2014-04-26T08:56:35Z</time>
      </trkpt>
      <trkpt lat="42.761565" lon="0.522084">
        <ele>2160.7</ele>
        <time>2014-04-26T08:56:59Z</time>
      </trkpt>
      <trkpt lat="42.761481" lon="0.521995">
        <ele>2162.5</ele>
        <time>2014-04-26T08:57:18Z</time>
      </trkpt>
      <trkpt lat="42.761409" lon="0.521980">
        <ele>2165.4</ele>
        <time>2014-04-26T08:57:50Z</time>
      </trkpt>
      <trkpt lat="42.761340" lon="0.522026">
        <ele>2166.6</ele>
        <time>2014-04-26T09:00:47Z</time>
      </trkpt>
      <trkpt lat="42.761264" lon="0.522093">
        <ele>2168.5</ele>
        <time>2014-04-26T09:01:07Z</time>
      </trkpt>
      <trkpt lat="42.761184" lon="0.522175">
        <ele>2170.9</ele>
        <time>2014-04-26T09:01:27Z</time>
      </trkpt>
      <trkpt lat="42.761111" lon="0.522270">
        <ele>2173.6</ele>
        <time>2014-04-26T09:01:46Z</time>
      </trkpt>
      <trkpt lat="42.761043" lon="0.522378">
        <ele>2176.1</ele>
        <time>2014-04-26T09:02:05Z</time>
      </trkpt>
      <trkpt lat="42.760975" lon="0.522479">
        <ele>2178.6</ele>
        <time>2014-04-26T09:02:22Z</time>
      </trkpt>
      <trkpt lat="42.760903" lon="0.522587">
        <ele>2181.7</ele>
        <time>2014-04-26T09:02:40Z</time>
      </trkpt>
      <trkpt lat="42.760828" lon="0.522692">
        <ele>2185.0</ele>
        <time>2014-04-26T09:02:59Z</time>
      </trkpt>
      <trkpt lat="42.760751" lon="0.522781">
        <ele>2189.4</ele>
        <time>2014-04-26T09:03:22Z</time>
      </trkpt>
      <trkpt lat="42.760685" lon="0.522876">
        <ele>2194.3</ele>
        <time>2014-04-26T09:04:13Z</time>
      </trkpt>
      <trkpt lat="42.760630" lon="0.522993">
        <ele>2198.1</ele>
        <time>2014-04-26T09:04:36Z</time>
      </trkpt>
      <trkpt lat="42.760573" lon="0.523091">
        <ele>2202.9</ele>
        <time>2014-04-26T09:05:01Z</time>
      </trkpt>
      <trkpt lat="42.760517" lon="0.523181">
        <ele>2207.1</ele>
        <time>2014-04-26T09:05:23Z</time>
      </trkpt>
      <trkpt lat="42.760474" lon="0.523288">
        <ele>2211.2</ele>
        <time>2014-04-26T09:05:46Z</time>
      </trkpt>
      <trkpt lat="42.760409" lon="0.523380">
        <ele>2215.2</ele>
        <time>2014-04-26T09:06:10Z</time>
      </trkpt>
      <trkpt lat="42.760346" lon="0.523477">
        <ele>2217.4</ele>
        <time>2014-04-26T09:06:27Z</time>
      </trkpt>
      <trkpt lat="42.760315" lon="0.523516">
        <ele>2218.0</ele>
        <time>2014-04-26T09:09:33Z</time>
      </trkpt>
      <trkpt lat="42.760256" lon="0.523620">
        <ele>2217.8</ele>
        <time>2014-04-26T09:10:41Z</time>
      </trkpt>
      <trkpt lat="42.760207" lon="0.523724">
        <ele>2217.4</ele>
        <time>2014-04-26T09:10:53Z</time>
      </trkpt>
      <trkpt lat="42.760179" lon="0.523830">
        <ele>2214.9</ele>
        <time>2014-04-26T09:11:08Z</time>
      </trkpt>
      <trkpt lat="42.760107" lon="0.523904">
        <ele>2212.9</ele>
        <time>2014-04-26T09:11:18Z</time>
      </trkpt>
      <trkpt lat="42.760029" lon="0.523984">
        <ele>2211.4</ele>
        <time>2014-04-26T09:11:31Z</time>
      </trkpt>
      <trkpt lat="42.759963" lon="0.524079">
        <ele>2211.3</ele>
        <time>2014-04-26T09:11:44Z</time>
      </trkpt>
      <trkpt lat="42.759896" lon="0.524165">
        <ele>2210.8</ele>
        <time>2014-04-26T09:11:56Z</time>
      </trkpt>
      <trkpt lat="42.759812" lon="0.524228">
        <ele>2210.3</ele>
        <time>2014-04-26T09:12:08Z</time>
      </trkpt>
      <trkpt lat="42.759732" lon="0.524316">
        <ele>2210.0</ele>
        <time>2014-04-26T09:12:22Z</time>
      </trkpt>
      <trkpt lat="42.759659" lon="0.524402">
        <ele>2210.6</ele>
        <time>2014-04-26T09:12:36Z</time>
      </trkpt>
      <trkpt lat="42.759581" lon="0.524479">
        <ele>2211.2</ele>
        <time>2014-04-26T09:12:51Z</time>
      </trkpt>
      <trkpt lat="42.759491" lon="0.524551">
        <ele>2212.5</ele>
        <time>2014-04-26T09:13:07Z</time>
      </trkpt>
      <trkpt lat="42.759403" lon="0.524621">
        <ele>2214.6</ele>
        <time>2014-04-26T09:13:26Z</time>
      </trkpt>
      <trkpt lat="42.759327" lon="0.524680">
        <ele>2216.9</ele>
        <time>2014-04-26T09:13:45Z</time>
      </trkpt>
      <trkpt lat="42.759241" lon="0.524761">
        <ele>2219.1</ele>
        <time>2014-04-26T09:14:03Z</time>
      </trkpt>
      <trkpt lat="42.759149" lon="0.524845">
        <ele>2220.8</ele>
        <time>2014-04-26T09:14:21Z</time>
      </trkpt>
      <trkpt lat="42.759063" lon="0.524928">
        <ele>2224.1</ele>
        <time>2014-04-26T09:14:41Z</time>
      </trkpt>
      <trkpt lat="42.758967" lon="0.525005">
        <ele>2226.3</ele>
        <time>2014-04-26T09:14:58Z</time>
      </trkpt>
      <trkpt lat="42.758856" lon="0.525061">
        <ele>2227.6</ele>
        <time>2014-04-26T09:15:16Z</time>
      </trkpt>
      <trkpt lat="42.758753" lon="0.525092">
        <ele>2229.9</ele>
        <time>2014-04-26T09:15:34Z</time>
      </trkpt>
      <trkpt lat="42.758650" lon="0.525139">
        <ele>2233.2</ele>
        <time>2014-04-26T09:15:55Z</time>
      </trkpt>
      <trkpt lat="42.758576" lon="0.525210">
        <ele>2236.5</ele>
        <time>2014-04-26T09:16:16Z</time>
      </trkpt>
      <trkpt lat="42.758477" lon="0.525267">
        <ele>2239.5</ele>
        <time>2014-04-26T09:16:37Z</time>
      </trkpt>
      <trkpt lat="42.758368" lon="0.525296">
        <ele>2241.9</ele>
        <time>2014-04-26T09:16:55Z</time>
      </trkpt>
      <trkpt lat="42.758279" lon="0.525330">
        <ele>2244.3</ele>
        <time>2014-04-26T09:17:09Z</time>
      </trkpt>
      <trkpt lat="42.758201" lon="0.525405">
        <ele>2244.3</ele>
        <time>2014-04-26T09:17:22Z</time>
      </trkpt>
      <trkpt lat="42.758109" lon="0.525452">
        <ele>2243.9</ele>
        <time>2014-04-26T09:17:34Z</time>
      </trkpt>
      <trkpt lat="42.758030" lon="0.525509">
        <ele>2242.1</ele>
        <time>2014-04-26T09:17:47Z</time>
      </trkpt>
      <trkpt lat="42.757930" lon="0.525558">
        <ele>2241.3</ele>
        <time>2014-04-26T09:18:02Z</time>
      </trkpt>
      <trkpt lat="42.757831" lon="0.525634">
        <ele>2241.7</ele>
        <time>2014-04-26T09:19:43Z</time>
      </trkpt>
      <trkpt lat="42.757752" lon="0.525697">
        <ele>2241.3</ele>
        <time>2014-04-26T09:19:57Z</time>
      </trkpt>
      <trkpt lat="42.757668" lon="0.525763">
        <ele>2241.3</ele>
        <time>2014-04-26T09:20:13Z</time>
      </trkpt>
      <trkpt lat="42.757571" lon="0.525806">
        <ele>2242.4</ele>
        <time>2014-04-26T09:20:28Z</time>
      </trkpt>
      <trkpt lat="42.757488" lon="0.525846">
        <ele>2243.0</ele>
        <time>2014-04-26T09:20:43Z</time>
      </trkpt>
      <trkpt lat="42.757416" lon="0.525902">
        <ele>2242.4</ele>
        <time>2014-04-26T09:20:56Z</time>
      </trkpt>
      <trkpt lat="42.757338" lon="0.525974">
        <ele>2241.4</ele>
        <time>2014-04-26T09:21:11Z</time>
      </trkpt>
      <trkpt lat="42.757253" lon="0.526046">
        <ele>2240.6</ele>
        <time>2014-04-26T09:21:25Z</time>
      </trkpt>
      <trkpt lat="42.757168" lon="0.526119">
        <ele>2241.7</ele>
        <time>2014-04-26T09:21:44Z</time>
      </trkpt>
      <trkpt lat="42.757097" lon="0.526167">
        <ele>2241.7</ele>
        <time>2014-04-26T09:22:16Z</time>
      </trkpt>
      <trkpt lat="42.756993" lon="0.526232">
        <ele>2240.6</ele>
        <time>2014-04-26T09:22:34Z</time>
      </trkpt>
      <trkpt lat="42.756925" lon="0.526327">
        <ele>2241.3</ele>
        <time>2014-04-26T09:23:05Z</time>
      </trkpt>
      <trkpt lat="42.756847" lon="0.526368">
        <ele>2242.4</ele>
        <time>2014-04-26T09:23:20Z</time>
      </trkpt>
      <trkpt lat="42.756761" lon="0.526437">
        <ele>2245.0</ele>
        <time>2014-04-26T09:23:37Z</time>
      </trkpt>
      <trkpt lat="42.756689" lon="0.526491">
        <ele>2246.8</ele>
        <time>2014-04-26T09:23:51Z</time>
      </trkpt>
      <trkpt lat="42.756674" lon="0.526521">
        <ele>2247.7</ele>
        <time>2014-04-26T09:24:59Z</time>
      </trkpt>
      <trkpt lat="42.756704" lon="0.526506">
        <ele>2247.4</ele>
        <time>2014-04-26T09:27:46Z</time>
      </trkpt>
      <trkpt lat="42.756629" lon="0.526586">
        <ele>2247.1</ele>
        <time>2014-04-26T09:28:58Z</time>
      </trkpt>
      <trkpt lat="42.756553" lon="0.526659">
        <ele>2246.7</ele>
        <time>2014-04-26T09:29:08Z</time>
      </trkpt>
      <trkpt lat="42.756480" lon="0.526730">
        <ele>2247.3</ele>
        <time>2014-04-26T09:29:22Z</time>
      </trkpt>
      <trkpt lat="42.756399" lon="0.526807">
        <ele>2248.4</ele>
        <time>2014-04-26T09:29:35Z</time>
      </trkpt>
      <trkpt lat="42.756325" lon="0.526896">
        <ele>2249.5</ele>
        <time>2014-04-26T09:29:50Z</time>
      </trkpt>
      <trkpt lat="42.756258" lon="0.526978">
        <ele>2251.3</ele>
        <time>2014-04-26T09:30:06Z</time>
      </trkpt>
      <trkpt lat="42.756184" lon="0.527067">
        <ele>2252.7</ele>
        <time>2014-04-26T09:30:21Z</time>
      </trkpt>
      <trkpt lat="42.756108" lon="0.527153">
        <ele>2254.3</ele>
        <time>2014-04-26T09:30:37Z</time>
      </trkpt>
      <trkpt lat="42.756025" lon="0.527228">
        <ele>2255.0</ele>
        <time>2014-04-26T09:30:52Z</time>
      </trkpt>
      <trkpt lat="42.755944" lon="0.527304">
        <ele>2255.2</ele>
        <time>2014-04-26T09:31:07Z</time>
      </trkpt>
      <trkpt lat="42.755861" lon="0.527380">
        <ele>2255.3</ele>
        <time>2014-04-26T09:31:21Z</time>
      </trkpt>
      <trkpt lat="42.755784" lon="0.527458">
        <ele>2256.1</ele>
        <time>2014-04-26T09:31:35Z</time>
      </trkpt>
      <trkpt lat="42.755717" lon="0.527538">
        <ele>2257.1</ele>
        <time>2014-04-26T09:31:49Z</time>
      </trkpt>
      <trkpt lat="42.755640" lon="0.527606">
        <ele>2257.7</ele>
        <time>2014-04-26T09:32:04Z</time>
      </trkpt>
      <trkpt lat="42.755553" lon="0.527696">
        <ele>2258.9</ele>
        <time>2014-04-26T09:32:20Z</time>
      </trkpt>
      <trkpt lat="42.755466" lon="0.527769">
        <ele>2260.8</ele>
        <time>2014-04-26T09:32:40Z</time>
      </trkpt>
      <trkpt lat="42.755385" lon="0.527840">
        <ele>2264.0</ele>
        <time>2014-04-26T09:33:01Z</time>
      </trkpt>
      <trkpt lat="42.755297" lon="0.527905">
        <ele>2266.4</ele>
        <time>2014-04-26T09:33:22Z</time>
      </trkpt>
      <trkpt lat="42.755202" lon="0.527969">
        <ele>2268.8</ele>
        <time>2014-04-26T09:33:48Z</time>
      </trkpt>
      <trkpt lat="42.755115" lon="0.528034">
        <ele>2269.3</ele>
        <time>2014-04-26T09:34:02Z</time>
      </trkpt>
      <trkpt lat="42.755038" lon="0.528108">
        <ele>2269.1</ele>
        <time>2014-04-26T09:34:15Z</time>
      </trkpt>
      <trkpt lat="42.754958" lon="0.528186">
        <ele>2269.1</ele>
        <time>2014-04-26T09:34:31Z</time>
      </trkpt>
      <trkpt lat="42.754872" lon="0.528254">
        <ele>2270.2</ele>
        <time>2014-04-26T09:34:52Z</time>
      </trkpt>
      <trkpt lat="42.754787" lon="0.528309">
        <ele>2270.8</ele>
        <time>2014-04-26T09:35:07Z</time>
      </trkpt>
      <trkpt lat="42.754709" lon="0.528389">
        <ele>2273.1</ele>
        <time>2014-04-26T09:35:26Z</time>
      </trkpt>
      <trkpt lat="42.754636" lon="0.528456">
        <ele>2276.2</ele>
        <time>2014-04-26T09:35:47Z</time>
      </trkpt>
      <trkpt lat="42.754557" lon="0.528522">
        <ele>2278.7</ele>
        <time>2014-04-26T09:36:07Z</time>
      </trkpt>
      <trkpt lat="42.754481" lon="0.528580">
        <ele>2281.2</ele>
        <time>2014-04-26T09:36:30Z</time>
      </trkpt>
      <trkpt lat="42.754401" lon="0.528636">
        <ele>2284.6</ele>
        <time>2014-04-26T09:36:56Z</time>
      </trkpt>
      <trkpt lat="42.754320" lon="0.528725">
        <ele>2287.2</ele>
        <time>2014-04-26T09:37:17Z</time>
      </trkpt>
      <trkpt lat="42.754237" lon="0.528780">
        <ele>2291.2</ele>
        <time>2014-04-26T09:37:47Z</time>
      </trkpt>
      <trkpt lat="42.754159" lon="0.528869">
        <ele>2295.0</ele>
        <time>2014-04-26T09:38:17Z</time>
      </trkpt>
      <trkpt lat="42.754088" lon="0.528957">
        <ele>2298.5</ele>
        <time>2014-04-26T09:38:48Z</time>
      </trkpt>
      <trkpt lat="42.754020" lon="0.529040">
        <ele>2301.8</ele>
        <time>2014-04-26T09:39:15Z</time>
      </trkpt>
      <trkpt lat="42.753956" lon="0.529135">
        <ele>2305.8</ele>
        <time>2014-04-26T09:39:42Z</time>
      </trkpt>
      <trkpt lat="42.753869" lon="0.529215">
        <ele>2312.4</ele>
        <time>2014-04-26T09:40:22Z</time>
      </trkpt>
      <trkpt lat="42.753805" lon="0.529346">
        <ele>2314.3</ele>
        <time>2014-04-26T09:41:56Z</time>
      </trkpt>
      <trkpt lat="42.753761" lon="0.529435">
        <ele>2319.9</ele>
        <time>2014-04-26T09:43:05Z</time>
      </trkpt>
      <trkpt lat="42.753698" lon="0.529528">
        <ele>2322.2</ele>
        <time>2014-04-26T09:43:45Z</time>
      </trkpt>
      <trkpt lat="42.753642" lon="0.529611">
        <ele>2325.8</ele>
        <time>2014-04-26T09:44:05Z</time>
      </trkpt>
      <trkpt lat="42.753602" lon="0.529708">
        <ele>2330.3</ele>
        <time>2014-04-26T09:44:26Z</time>
      </trkpt>
      <trkpt lat="42.753563" lon="0.529801">
        <ele>2335.2</ele>
        <time>2014-04-26T09:44:51Z</time>
      </trkpt>
      <trkpt lat="42.753530" lon="0.529914">
        <ele>2341.6</ele>
        <time>2014-04-26T09:45:25Z</time>
      </trkpt>
      <trkpt lat="42.753485" lon="0.530035">
        <ele>2346.1</ele>
        <time>2014-04-26T09:45:56Z</time>
      </trkpt>
      <trkpt lat="42.753430" lon="0.530148">
        <ele>2349.0</ele>
        <time>2014-04-26T09:46:16Z</time>
      </trkpt>
      <trkpt lat="42.753388" lon="0.530250">
        <ele>2353.1</ele>
        <time>2014-04-26T09:46:45Z</time>
      </trkpt>
      <trkpt lat="42.753340" lon="0.530347">
        <ele>2356.9</ele>
        <time>2014-04-26T09:47:24Z</time>
      </trkpt>
      <trkpt lat="42.753265" lon="0.530423">
        <ele>2359.4</ele>
        <time>2014-04-26T09:47:45Z</time>
      </trkpt>
      <trkpt lat="42.753194" lon="0.530520">
        <ele>2362.3</ele>
        <time>2014-04-26T09:48:08Z</time>
      </trkpt>
      <trkpt lat="42.753170" lon="0.530614">
        <ele>2363.8</ele>
        <time>2014-04-26T09:50:41Z</time>
      </trkpt>
      <trkpt lat="42.753183" lon="0.530600">
        <ele>2364.6</ele>
        <time>2014-04-26T09:54:57Z</time>
      </trkpt>
      <trkpt lat="42.753184" lon="0.530617">
        <ele>2364.9</ele>
        <time>2014-04-26T09:57:25Z</time>
      </trkpt>
      <trkpt lat="42.753173" lon="0.530715">
        <ele>2364.0</ele>
        <time>2014-04-26T09:58:47Z</time>
      </trkpt>
      <trkpt lat="42.753166" lon="0.530849">
        <ele>2365.5</ele>
        <time>2014-04-26T09:59:04Z</time>
      </trkpt>
      <trkpt lat="42.753197" lon="0.530965">
        <ele>2365.6</ele>
        <time>2014-04-26T09:59:18Z</time>
      </trkpt>
      <trkpt lat="42.753210" lon="0.531087">
        <ele>2364.3</ele>
        <time>2014-04-26T09:59:32Z</time>
      </trkpt>
      <trkpt lat="42.753229" lon="0.531211">
        <ele>2362.2</ele>
        <time>2014-04-26T09:59:46Z</time>
      </trkpt>
      <trkpt lat="42.753239" lon="0.531332">
        <ele>2361.2</ele>
        <time>2014-04-26T10:00:04Z</time>
      </trkpt>
      <trkpt lat="42.753217" lon="0.531460">
        <ele>2363.6</ele>
        <time>2014-04-26T10:00:25Z</time>
      </trkpt>
      <trkpt lat="42.753239" lon="0.531581">
        <ele>2362.5</ele>
        <time>2014-04-26T10:00:38Z</time>
      </trkpt>
      <trkpt lat="42.753205" lon="0.531701">
        <ele>2362.4</ele>
        <time>2014-04-26T10:00:54Z</time>
      </trkpt>
      <trkpt lat="42.753248" lon="0.531803">
        <ele>2360.6</ele>
        <time>2014-04-26T10:01:08Z</time>
      </trkpt>
      <trkpt lat="42.753295" lon="0.531909">
        <ele>2359.1</ele>
        <time>2014-04-26T10:01:22Z</time>
      </trkpt>
      <trkpt lat="42.753344" lon="0.532009">
        <ele>2359.3</ele>
        <time>2014-04-26T10:01:36Z</time>
      </trkpt>
      <trkpt lat="42.753386" lon="0.532107">
        <ele>2357.2</ele>
        <time>2014-04-26T10:01:50Z</time>
      </trkpt>
      <trkpt lat="42.753395" lon="0.532219">
        <ele>2357.2</ele>
        <time>2014-04-26T10:02:04Z</time>
      </trkpt>
      <trkpt lat="42.753400" lon="0.532309">
        <ele>2357.6</ele>
        <time>2014-04-26T10:02:53Z</time>
      </trkpt>
      <trkpt lat="42.753413" lon="0.532445">
        <ele>2356.4</ele>
        <time>2014-04-26T10:03:10Z</time>
      </trkpt>
      <trkpt lat="42.753420" lon="0.532572">
        <ele>2355.7</ele>
        <time>2014-04-26T10:03:25Z</time>
      </trkpt>
      <trkpt lat="42.753423" lon="0.532706">
        <ele>2356.0</ele>
        <time>2014-04-26T10:03:43Z</time>
      </trkpt>
      <trkpt lat="42.753442" lon="0.532830">
        <ele>2356.4</ele>
        <time>2014-04-26T10:04:01Z</time>
      </trkpt>
      <trkpt lat="42.753472" lon="0.532947">
        <ele>2352.3</ele>
        <time>2014-04-26T10:04:37Z</time>
      </trkpt>
      <trkpt lat="42.753498" lon="0.533060">
        <ele>2347.8</ele>
        <time>2014-04-26T10:04:56Z</time>
      </trkpt>
      <trkpt lat="42.753493" lon="0.533152">
        <ele>2344.7</ele>
        <time>2014-04-26T10:05:22Z</time>
      </trkpt>
      <trkpt lat="42.753530" lon="0.533204">
        <ele>2341.4</ele>
        <time>2014-04-26T10:06:03Z</time>
      </trkpt>
      <trkpt lat="42.753575" lon="0.533300">
        <ele>2336.6</ele>
        <time>2014-04-26T10:06:44Z</time>
      </trkpt>
      <trkpt lat="42.753586" lon="0.533349">
        <ele>2333.5</ele>
        <time>2014-04-26T10:07:25Z</time>
      </trkpt>
      <trkpt lat="42.753606" lon="0.533427">
        <ele>2331.6</ele>
        <time>2014-04-26T10:08:06Z</time>
      </trkpt>
      <trkpt lat="42.753593" lon="0.533484">
        <ele>2329.4</ele>
        <time>2014-04-26T10:08:44Z</time>
      </trkpt>
      <trkpt lat="42.753616" lon="0.533618">
        <ele>2326.6</ele>
        <time>2014-04-26T10:09:10Z</time>
      </trkpt>
      <trkpt lat="42.753630" lon="0.533745">
        <ele>2323.8</ele>
        <time>2014-04-26T10:09:30Z</time>
      </trkpt>
      <trkpt lat="42.753663" lon="0.533858">
        <ele>2322.1</ele>
        <time>2014-04-26T10:09:47Z</time>
      </trkpt>
      <trkpt lat="42.753692" lon="0.533932">
        <ele>2321.0</ele>
        <time>2014-04-26T10:13:09Z</time>
      </trkpt>
      <trkpt lat="42.753744" lon="0.534066">
        <ele>2317.5</ele>
        <time>2014-04-26T10:13:39Z</time>
      </trkpt>
      <trkpt lat="42.753813" lon="0.534172">
        <ele>2316.1</ele>
        <time>2014-04-26T10:13:53Z</time>
      </trkpt>
      <trkpt lat="42.753876" lon="0.534252">
        <ele>2315.5</ele>
        <time>2014-04-26T10:14:06Z</time>
      </trkpt>
      <trkpt lat="42.753922" lon="0.534359">
        <ele>2314.1</ele>
        <time>2014-04-26T10:14:23Z</time>
      </trkpt>
      <trkpt lat="42.753958" lon="0.534469">
        <ele>2314.0</ele>
        <time>2014-04-26T10:14:41Z</time>
      </trkpt>
      <trkpt lat="42.754005" lon="0.534564">
        <ele>2314.8</ele>
        <time>2014-04-26T10:14:59Z</time>
      </trkpt>
      <trkpt lat="42.754038" lon="0.534675">
        <ele>2315.8</ele>
        <time>2014-04-26T10:15:18Z</time>
      </trkpt>
      <trkpt lat="42.754088" lon="0.534768">
        <ele>2316.6</ele>
        <time>2014-04-26T10:15:39Z</time>
      </trkpt>
      <trkpt lat="42.754124" lon="0.534866">
        <ele>2317.6</ele>
        <time>2014-04-26T10:16:00Z</time>
      </trkpt>
      <trkpt lat="42.754180" lon="0.534958">
        <ele>2319.2</ele>
        <time>2014-04-26T10:16:24Z</time>
      </trkpt>
      <trkpt lat="42.754218" lon="0.535076">
        <ele>2322.4</ele>
        <time>2014-04-26T10:17:01Z</time>
      </trkpt>
      <trkpt lat="42.754240" lon="0.535186">
        <ele>2325.4</ele>
        <time>2014-04-26T10:17:29Z</time>
      </trkpt>
      <trkpt lat="42.754291" lon="0.535286">
        <ele>2327.7</ele>
        <time>2014-04-26T10:17:48Z</time>
      </trkpt>
      <trkpt lat="42.754344" lon="0.535384">
        <ele>2328.9</ele>
        <time>2014-04-26T10:18:08Z</time>
      </trkpt>
      <trkpt lat="42.754388" lon="0.535469">
        <ele>2331.1</ele>
        <time>2014-04-26T10:18:59Z</time>
      </trkpt>
      <trkpt lat="42.754450" lon="0.535560">
        <ele>2330.3</ele>
        <time>2014-04-26T10:19:15Z</time>
      </trkpt>
      <trkpt lat="42.754513" lon="0.535639">
        <ele>2330.4</ele>
        <time>2014-04-26T10:19:42Z</time>
      </trkpt>
      <trkpt lat="42.754582" lon="0.535721">
        <ele>2331.6</ele>
        <time>2014-04-26T10:20:20Z</time>
      </trkpt>
      <trkpt lat="42.754642" lon="0.535798">
        <ele>2333.0</ele>
        <time>2014-04-26T10:20:39Z</time>
      </trkpt>
      <trkpt lat="42.754678" lon="0.535913">
        <ele>2334.7</ele>
        <time>2014-04-26T10:21:00Z</time>
      </trkpt>
      <trkpt lat="42.754746" lon="0.535982">
        <ele>2336.0</ele>
        <time>2014-04-26T10:21:41Z</time>
      </trkpt>
      <trkpt lat="42.754815" lon="0.536060">
        <ele>2337.3</ele>
        <time>2014-04-26T10:22:04Z</time>
      </trkpt>
      <trkpt lat="42.754894" lon="0.536114">
        <ele>2338.1</ele>
        <time>2014-04-26T10:22:24Z</time>
      </trkpt>
      <trkpt lat="42.754983" lon="0.536132">
        <ele>2338.9</ele>
        <time>2014-04-26T10:22:46Z</time>
      </trkpt>
      <trkpt lat="42.755075" lon="0.536148">
        <ele>2340.6</ele>
        <time>2014-04-26T10:23:12Z</time>
      </trkpt>
      <trkpt lat="42.755149" lon="0.536179">
        <ele>2341.5</ele>
        <time>2014-04-26T10:23:41Z</time>
      </trkpt>
      <trkpt lat="42.755225" lon="0.536228">
        <ele>2342.6</ele>
        <time>2014-04-26T10:24:04Z</time>
      </trkpt>
      <trkpt lat="42.755300" lon="0.536281">
        <ele>2343.7</ele>
        <time>2014-04-26T10:24:31Z</time>
      </trkpt>
      <trkpt lat="42.755393" lon="0.536324">
        <ele>2345.6</ele>
        <time>2014-04-26T10:24:57Z</time>
      </trkpt>
      <trkpt lat="42.755476" lon="0.536367">
        <ele>2346.2</ele>
        <time>2014-04-26T10:25:19Z</time>
      </trkpt>
      <trkpt lat="42.755545" lon="0.536429">
        <ele>2347.8</ele>
        <time>2014-04-26T10:25:44Z</time>
      </trkpt>
      <trkpt lat="42.755614" lon="0.536503">
        <ele>2349.5</ele>
        <time>2014-04-26T10:26:08Z</time>
      </trkpt>
      <trkpt lat="42.755685" lon="0.536578">
        <ele>2350.6</ele>
        <time>2014-04-26T10:26:36Z</time>
      </trkpt>
      <trkpt lat="42.755763" lon="0.536638">
        <ele>2353.1</ele>
        <time>2014-04-26T10:27:01Z</time>
      </trkpt>
      <trkpt lat="42.755834" lon="0.536717">
        <ele>2355.1</ele>
        <time>2014-04-26T10:27:24Z</time>
      </trkpt>
      <trkpt lat="42.755904" lon="0.536800">
        <ele>2357.2</ele>
        <time>2014-04-26T10:27:45Z</time>
      </trkpt>
      <trkpt lat="42.755972" lon="0.536862">
        <ele>2358.4</ele>
        <time>2014-04-26T10:28:08Z</time>
      </trkpt>
      <trkpt lat="42.756032" lon="0.536955">
        <ele>2360.3</ele>
        <time>2014-04-26T10:28:29Z</time>
      </trkpt>
      <trkpt lat="42.756106" lon="0.537012">
        <ele>2361.4</ele>
        <time>2014-04-26T10:28:54Z</time>
      </trkpt>
      <trkpt lat="42.756179" lon="0.537069">
        <ele>2362.5</ele>
        <time>2014-04-26T10:29:15Z</time>
      </trkpt>
      <trkpt lat="42.756251" lon="0.537137">
        <ele>2364.0</ele>
        <time>2014-04-26T10:29:38Z</time>
      </trkpt>
      <trkpt lat="42.756335" lon="0.537198">
        <ele>2364.7</ele>
        <time>2014-04-26T10:30:09Z</time>
      </trkpt>
      <trkpt lat="42.756416" lon="0.537247">
        <ele>2366.4</ele>
        <time>2014-04-26T10:30:38Z</time>
      </trkpt>
      <trkpt lat="42.756507" lon="0.537264">
        <ele>2367.4</ele>
        <time>2014-04-26T10:31:03Z</time>
      </trkpt>
      <trkpt lat="42.756595" lon="0.537279">
        <ele>2368.5</ele>
        <time>2014-04-26T10:31:21Z</time>
      </trkpt>
      <trkpt lat="42.756677" lon="0.537295">
        <ele>2369.9</ele>
        <time>2014-04-26T10:31:50Z</time>
      </trkpt>
      <trkpt lat="42.756760" lon="0.537321">
        <ele>2371.3</ele>
        <time>2014-04-26T10:32:11Z</time>
      </trkpt>
      <trkpt lat="42.756837" lon="0.537386">
        <ele>2374.1</ele>
        <time>2014-04-26T10:32:42Z</time>
      </trkpt>
      <trkpt lat="42.756857" lon="0.537483">
        <ele>2377.1</ele>
        <time>2014-04-26T10:33:10Z</time>
      </trkpt>
      <trkpt lat="42.756862" lon="0.537587">
        <ele>2381.4</ele>
        <time>2014-04-26T10:33:42Z</time>
      </trkpt>
      <trkpt lat="42.756888" lon="0.537682">
        <ele>2384.6</ele>
        <time>2014-04-26T10:34:12Z</time>
      </trkpt>
      <trkpt lat="42.756933" lon="0.537780">
        <ele>2388.9</ele>
        <time>2014-04-26T10:34:47Z</time>
      </trkpt>
      <trkpt lat="42.757015" lon="0.537831">
        <ele>2392.1</ele>
        <time>2014-04-26T10:35:14Z</time>
      </trkpt>
      <trkpt lat="42.757060" lon="0.537919">
        <ele>2395.7</ele>
        <time>2014-04-26T10:35:45Z</time>
      </trkpt>
      <trkpt lat="42.757127" lon="0.537982">
        <ele>2399.5</ele>
        <time>2014-04-26T10:36:13Z</time>
      </trkpt>
      <trkpt lat="42.757216" lon="0.538015">
        <ele>2402.2</ele>
        <time>2014-04-26T10:36:42Z</time>
      </trkpt>
      <trkpt lat="42.757232" lon="0.538031">
        <ele>2402.9</ele>
        <time>2014-04-26T10:41:43Z</time>
      </trkpt>
      <trkpt lat="42.757255" lon="0.538030">
        <ele>2403.3</ele>
        <time>2014-04-26T11:18:07Z</time>
      </trkpt>
      <trkpt lat="42.757268" lon="0.538036">
        <ele>2403.6</ele>
        <time>2014-04-26T11:21:18Z</time>
      </trkpt>
      <trkpt lat="42.757340" lon="0.537992">
        <ele>2403.1</ele>
        <time>2014-04-26T11:21:43Z</time>
      </trkpt>
      <trkpt lat="42.757412" lon="0.537909">
        <ele>2401.2</ele>
        <time>2014-04-26T11:22:06Z</time>
      </trkpt>
      <trkpt lat="42.757472" lon="0.537805">
        <ele>2399.4</ele>
        <time>2014-04-26T11:22:23Z</time>
      </trkpt>
      <trkpt lat="42.757553" lon="0.537733">
        <ele>2397.8</ele>
        <time>2014-04-26T11:23:00Z</time>
      </trkpt>
      <trkpt lat="42.757631" lon="0.537662">
        <ele>2396.3</ele>
        <time>2014-04-26T11:23:11Z</time>
      </trkpt>
      <trkpt lat="42.757674" lon="0.537551">
        <ele>2394.9</ele>
        <time>2014-04-26T11:23:22Z</time>
      </trkpt>
      <trkpt lat="42.757720" lon="0.537449">
        <ele>2393.2</ele>
        <time>2014-04-26T11:23:34Z</time>
      </trkpt>
      <trkpt lat="42.757774" lon="0.537350">
        <ele>2391.0</ele>
        <time>2014-04-26T11:23:47Z</time>
      </trkpt>
      <trkpt lat="42.757827" lon="0.537263">
        <ele>2389.4</ele>
        <time>2014-04-26T11:24:12Z</time>
      </trkpt>
      <trkpt lat="42.757894" lon="0.537188">
        <ele>2389.0</ele>
        <time>2014-04-26T11:24:26Z</time>
      </trkpt>
      <trkpt lat="42.757977" lon="0.537107">
        <ele>2389.1</ele>
        <time>2014-04-26T11:24:39Z</time>
      </trkpt>
      <trkpt lat="42.758054" lon="0.537039">
        <ele>2388.2</ele>
        <time>2014-04-26T11:24:56Z</time>
      </trkpt>
      <trkpt lat="42.758134" lon="0.536983">
        <ele>2387.0</ele>
        <time>2014-04-26T11:25:08Z</time>
      </trkpt>
      <trkpt lat="42.758229" lon="0.537024">
        <ele>2386.1</ele>
        <time>2014-04-26T11:25:20Z</time>
      </trkpt>
      <trkpt lat="42.758287" lon="0.537119">
        <ele>2388.6</ele>
        <time>2014-04-26T11:25:34Z</time>
      </trkpt>
      <trkpt lat="42.758356" lon="0.537190">
        <ele>2390.3</ele>
        <time>2014-04-26T11:25:49Z</time>
      </trkpt>
      <trkpt lat="42.758368" lon="0.537194">
        <ele>2389.5</ele>
        <time>2014-04-26T11:28:37Z</time>
      </trkpt>
      <trkpt lat="42.758456" lon="0.537181">
        <ele>2385.9</ele>
        <time>2014-04-26T11:28:55Z</time>
      </trkpt>
      <trkpt lat="42.758542" lon="0.537176">
        <ele>2380.9</ele>
        <time>2014-04-26T11:29:14Z</time>
      </trkpt>
      <trkpt lat="42.758619" lon="0.537187">
        <ele>2375.4</ele>
        <time>2014-04-26T11:29:40Z</time>
      </trkpt>
      <trkpt lat="42.758685" lon="0.537193">
        <ele>2369.8</ele>
        <time>2014-04-26T11:30:07Z</time>
      </trkpt>
      <trkpt lat="42.758768" lon="0.537165">
        <ele>2364.4</ele>
        <time>2014-04-26T11:30:47Z</time>
      </trkpt>
      <trkpt lat="42.758849" lon="0.537164">
        <ele>2360.0</ele>
        <time>2014-04-26T11:31:06Z</time>
      </trkpt>
      <trkpt lat="42.758938" lon="0.537174">
        <ele>2355.7</ele>
        <time>2014-04-26T11:31:29Z</time>
      </trkpt>
      <trkpt lat="42.759014" lon="0.537202">
        <ele>2351.7</ele>
        <time>2014-04-26T11:32:10Z</time>
      </trkpt>
      <trkpt lat="42.759099" lon="0.537220">
        <ele>2349.3</ele>
        <time>2014-04-26T11:32:27Z</time>
      </trkpt>
      <trkpt lat="42.759153" lon="0.537275">
        <ele>2349.0</ele>
        <time>2014-04-26T11:32:47Z</time>
      </trkpt>
      <trkpt lat="42.759233" lon="0.537246">
        <ele>2347.5</ele>
        <time>2014-04-26T11:34:11Z</time>
      </trkpt>
      <trkpt lat="42.759323" lon="0.537271">
        <ele>2346.2</ele>
        <time>2014-04-26T11:34:26Z</time>
      </trkpt>
      <trkpt lat="42.759410" lon="0.537312">
        <ele>2345.6</ele>
        <time>2014-04-26T11:34:39Z</time>
      </trkpt>
      <trkpt lat="42.759482" lon="0.537381">
        <ele>2345.5</ele>
        <time>2014-04-26T11:34:55Z</time>
      </trkpt>
      <trkpt lat="42.759562" lon="0.537389">
        <ele>2347.6</ele>
        <time>2014-04-26T11:35:29Z</time>
      </trkpt>
      <trkpt lat="42.759610" lon="0.537356">
        <ele>2348.5</ele>
        <time>2014-04-26T11:38:26Z</time>
      </trkpt>
      <trkpt lat="42.759678" lon="0.537296">
        <ele>2346.3</ele>
        <time>2014-04-26T11:38:47Z</time>
      </trkpt>
      <trkpt lat="42.759763" lon="0.537254">
        <ele>2342.5</ele>
        <time>2014-04-26T11:39:12Z</time>
      </trkpt>
      <trkpt lat="42.759841" lon="0.537273">
        <ele>2337.5</ele>
        <time>2014-04-26T11:39:43Z</time>
      </trkpt>
      <trkpt lat="42.759921" lon="0.537269">
        <ele>2333.5</ele>
        <time>2014-04-26T11:40:18Z</time>
      </trkpt>
      <trkpt lat="42.760007" lon="0.537229">
        <ele>2329.6</ele>
        <time>2014-04-26T11:40:35Z</time>
      </trkpt>
      <trkpt lat="42.760032" lon="0.537171">
        <ele>2324.5</ele>
        <time>2014-04-26T11:41:21Z</time>
      </trkpt>
      <trkpt lat="42.760117" lon="0.537189">
        <ele>2321.5</ele>
        <time>2014-04-26T11:41:36Z</time>
      </trkpt>
      <trkpt lat="42.760169" lon="0.537173">
        <ele>2321.6</ele>
        <time>2014-04-26T11:43:50Z</time>
      </trkpt>
      <trkpt lat="42.760222" lon="0.537219">
        <ele>2316.9</ele>
        <time>2014-04-26T11:44:19Z</time>
      </trkpt>
      <trkpt lat="42.760296" lon="0.537283">
        <ele>2314.8</ele>
        <time>2014-04-26T11:44:30Z</time>
      </trkpt>
      <trkpt lat="42.760378" lon="0.537273">
        <ele>2310.5</ele>
        <time>2014-04-26T11:44:58Z</time>
      </trkpt>
      <trkpt lat="42.760449" lon="0.537298">
        <ele>2306.8</ele>
        <time>2014-04-26T11:45:20Z</time>
      </trkpt>
      <trkpt lat="42.760514" lon="0.537365">
        <ele>2300.4</ele>
        <time>2014-04-26T11:46:17Z</time>
      </trkpt>
      <trkpt lat="42.760560" lon="0.537421">
        <ele>2297.9</ele>
        <time>2014-04-26T11:47:32Z</time>
      </trkpt>
      <trkpt lat="42.760575" lon="0.537502">
        <ele>2297.9</ele>
        <time>2014-04-26T11:48:12Z</time>
      </trkpt>
      <trkpt lat="42.760632" lon="0.537492">
        <ele>2296.0</ele>
        <time>2014-04-26T11:49:28Z</time>
      </trkpt>
      <trkpt lat="42.760681" lon="0.537454">
        <ele>2291.2</ele>
        <time>2014-04-26T11:50:17Z</time>
      </trkpt>
      <trkpt lat="42.760680" lon="0.537439">
        <ele>2290.5</ele>
        <time>2014-04-26T11:51:16Z</time>
      </trkpt>
      <trkpt lat="42.760708" lon="0.537448">
        <ele>2286.5</ele>
        <time>2014-04-26T11:53:14Z</time>
      </trkpt>
      <trkpt lat="42.760714" lon="0.537451">
        <ele>2286.5</ele>
        <time>2014-04-26T11:56:16Z</time>
      </trkpt>
      <trkpt lat="42.760780" lon="0.537531">
        <ele>2284.3</ele>
        <time>2014-04-26T11:56:33Z</time>
      </trkpt>
      <trkpt lat="42.760844" lon="0.537603">
        <ele>2281.1</ele>
        <time>2014-04-26T11:56:51Z</time>
      </trkpt>
      <trkpt lat="42.760864" lon="0.537708">
        <ele>2278.7</ele>
        <time>2014-04-26T11:57:18Z</time>
      </trkpt>
      <trkpt lat="42.760926" lon="0.537797">
        <ele>2275.6</ele>
        <time>2014-04-26T11:57:37Z</time>
      </trkpt>
      <trkpt lat="42.761016" lon="0.537821">
        <ele>2271.4</ele>
        <time>2014-04-26T11:58:01Z</time>
      </trkpt>
      <trkpt lat="42.761068" lon="0.537758">
        <ele>2265.7</ele>
        <time>2014-04-26T11:58:39Z</time>
      </trkpt>
      <trkpt lat="42.761124" lon="0.537712">
        <ele>2261.6</ele>
        <time>2014-04-26T11:59:02Z</time>
      </trkpt>
      <trkpt lat="42.761206" lon="0.537785">
        <ele>2258.4</ele>
        <time>2014-04-26T11:59:19Z</time>
      </trkpt>
      <trkpt lat="42.761284" lon="0.537825">
        <ele>2254.7</ele>
        <time>2014-04-26T11:59:53Z</time>
      </trkpt>
      <trkpt lat="42.761357" lon="0.537888">
        <ele>2252.9</ele>
        <time>2014-04-26T12:00:06Z</time>
      </trkpt>
      <trkpt lat="42.761441" lon="0.537909">
        <ele>2250.1</ele>
        <time>2014-04-26T12:00:39Z</time>
      </trkpt>
      <trkpt lat="42.761535" lon="0.537954">
        <ele>2248.7</ele>
        <time>2014-04-26T12:00:55Z</time>
      </trkpt>
      <trkpt lat="42.761605" lon="0.538014">
        <ele>2251.8</ele>
        <time>2014-04-26T12:01:30Z</time>
      </trkpt>
      <trkpt lat="42.761641" lon="0.538093">
        <ele>2256.2</ele>
        <time>2014-04-26T12:01:54Z</time>
      </trkpt>
      <trkpt lat="42.761698" lon="0.538131">
        <ele>2257.3</ele>
        <time>2014-04-26T12:02:20Z</time>
      </trkpt>
      <trkpt lat="42.761761" lon="0.538202">
        <ele>2257.2</ele>
        <time>2014-04-26T12:02:37Z</time>
      </trkpt>
      <trkpt lat="42.761834" lon="0.538256">
        <ele>2257.3</ele>
        <time>2014-04-26T12:02:57Z</time>
      </trkpt>
      <trkpt lat="42.761902" lon="0.538294">
        <ele>2255.2</ele>
        <time>2014-04-26T12:04:21Z</time>
      </trkpt>
      <trkpt lat="42.761997" lon="0.538315">
        <ele>2253.2</ele>
        <time>2014-04-26T12:04:35Z</time>
      </trkpt>
      <trkpt lat="42.762090" lon="0.538333">
        <ele>2251.0</ele>
        <time>2014-04-26T12:04:48Z</time>
      </trkpt>
      <trkpt lat="42.762170" lon="0.538319">
        <ele>2249.1</ele>
        <time>2014-04-26T12:06:03Z</time>
      </trkpt>
      <trkpt lat="42.762246" lon="0.538356">
        <ele>2246.8</ele>
        <time>2014-04-26T12:06:20Z</time>
      </trkpt>
      <trkpt lat="42.762328" lon="0.538416">
        <ele>2246.1</ele>
        <time>2014-04-26T12:06:33Z</time>
      </trkpt>
      <trkpt lat="42.762405" lon="0.538496">
        <ele>2244.2</ele>
        <time>2014-04-26T12:06:46Z</time>
      </trkpt>
      <trkpt lat="42.762478" lon="0.538580">
        <ele>2241.6</ele>
        <time>2014-04-26T12:07:00Z</time>
      </trkpt>
      <trkpt lat="42.762543" lon="0.538666">
        <ele>2239.5</ele>
        <time>2014-04-26T12:07:13Z</time>
      </trkpt>
      <trkpt lat="42.762602" lon="0.538763">
        <ele>2237.3</ele>
        <time>2014-04-26T12:07:26Z</time>
      </trkpt>
      <trkpt lat="42.762648" lon="0.538819">
        <ele>2234.8</ele>
        <time>2014-04-26T12:09:44Z</time>
      </trkpt>
      <trkpt lat="42.762742" lon="0.538881">
        <ele>2233.5</ele>
        <time>2014-04-26T12:10:10Z</time>
      </trkpt>
      <trkpt lat="42.762824" lon="0.538951">
        <ele>2232.2</ele>
        <time>2014-04-26T12:10:24Z</time>
      </trkpt>
      <trkpt lat="42.762909" lon="0.539011">
        <ele>2231.9</ele>
        <time>2014-04-26T12:10:36Z</time>
      </trkpt>
      <trkpt lat="42.762993" lon="0.539071">
        <ele>2231.5</ele>
        <time>2014-04-26T12:10:50Z</time>
      </trkpt>
      <trkpt lat="42.763084" lon="0.539127">
        <ele>2230.9</ele>
        <time>2014-04-26T12:11:08Z</time>
      </trkpt>
      <trkpt lat="42.763183" lon="0.539162">
        <ele>2230.8</ele>
        <time>2014-04-26T12:11:21Z</time>
      </trkpt>
      <trkpt lat="42.763277" lon="0.539194">
        <ele>2231.4</ele>
        <time>2014-04-26T12:11:40Z</time>
      </trkpt>
      <trkpt lat="42.763372" lon="0.539227">
        <ele>2232.7</ele>
        <time>2014-04-26T12:11:58Z</time>
      </trkpt>
      <trkpt lat="42.763461" lon="0.539285">
        <ele>2234.3</ele>
        <time>2014-04-26T12:12:13Z</time>
      </trkpt>
      <trkpt lat="42.763556" lon="0.539304">
        <ele>2236.3</ele>
        <time>2014-04-26T12:12:27Z</time>
      </trkpt>
      <trkpt lat="42.763647" lon="0.539334">
        <ele>2237.5</ele>
        <time>2014-04-26T12:12:41Z</time>
      </trkpt>
      <trkpt lat="42.763712" lon="0.539408">
        <ele>2239.4</ele>
        <time>2014-04-26T12:13:03Z</time>
      </trkpt>
      <trkpt lat="42.763783" lon="0.539450">
        <ele>2239.2</ele>
        <time>2014-04-26T12:13:18Z</time>
      </trkpt>
      <trkpt lat="42.763857" lon="0.539511">
        <ele>2236.7</ele>
        <time>2014-04-26T12:13:32Z</time>
      </trkpt>
      <trkpt lat="42.763945" lon="0.539538">
        <ele>2234.9</ele>
        <time>2014-04-26T12:13:43Z</time>
      </trkpt>
      <trkpt lat="42.764031" lon="0.539586">
        <ele>2233.2</ele>
        <time>2014-04-26T12:13:54Z</time>
      </trkpt>
      <trkpt lat="42.764121" lon="0.539607">
        <ele>2230.6</ele>
        <time>2014-04-26T12:14:06Z</time>
      </trkpt>
      <trkpt lat="42.764141" lon="0.539645">
        <ele>2228.5</ele>
        <time>2014-04-26T12:17:32Z</time>
      </trkpt>
      <trkpt lat="42.764225" lon="0.539714">
        <ele>2227.6</ele>
        <time>2014-04-26T12:17:43Z</time>
      </trkpt>
      <trkpt lat="42.764321" lon="0.539731">
        <ele>2224.6</ele>
        <time>2014-04-26T12:17:54Z</time>
      </trkpt>
      <trkpt lat="42.764410" lon="0.539722">
        <ele>2221.5</ele>
        <time>2014-04-26T12:18:53Z</time>
      </trkpt>
      <trkpt lat="42.764508" lon="0.539749">
        <ele>2220.3</ele>
        <time>2014-04-26T12:19:03Z</time>
      </trkpt>
      <trkpt lat="42.764603" lon="0.539755">
        <ele>2217.6</ele>
        <time>2014-04-26T12:19:16Z</time>
      </trkpt>
      <trkpt lat="42.764673" lon="0.539843">
        <ele>2214.8</ele>
        <time>2014-04-26T12:19:28Z</time>
      </trkpt>
      <trkpt lat="42.764755" lon="0.539882">
        <ele>2210.8</ele>
        <time>2014-04-26T12:19:43Z</time>
      </trkpt>
      <trkpt lat="42.764822" lon="0.539919">
        <ele>2206.8</ele>
        <time>2014-04-26T12:19:57Z</time>
      </trkpt>
      <trkpt lat="42.764889" lon="0.539995">
        <ele>2202.4</ele>
        <time>2014-04-26T12:20:13Z</time>
      </trkpt>
      <trkpt lat="42.764961" lon="0.539908">
        <ele>2197.8</ele>
        <time>2014-04-26T12:20:30Z</time>
      </trkpt>
      <trkpt lat="42.765025" lon="0.539961">
        <ele>2192.6</ele>
        <time>2014-04-26T12:20:48Z</time>
      </trkpt>
      <trkpt lat="42.765097" lon="0.539989">
        <ele>2189.3</ele>
        <time>2014-04-26T12:21:13Z</time>
      </trkpt>
      <trkpt lat="42.765183" lon="0.539997">
        <ele>2185.9</ele>
        <time>2014-04-26T12:21:31Z</time>
      </trkpt>
      <trkpt lat="42.765278" lon="0.540016">
        <ele>2182.4</ele>
        <time>2014-04-26T12:21:45Z</time>
      </trkpt>
      <trkpt lat="42.765367" lon="0.540057">
        <ele>2179.1</ele>
        <time>2014-04-26T12:21:59Z</time>
      </trkpt>
      <trkpt lat="42.765447" lon="0.540091">
        <ele>2175.1</ele>
        <time>2014-04-26T12:22:12Z</time>
      </trkpt>
      <trkpt lat="42.765539" lon="0.540097">
        <ele>2171.9</ele>
        <time>2014-04-26T12:22:24Z</time>
      </trkpt>
      <trkpt lat="42.765632" lon="0.540113">
        <ele>2169.4</ele>
        <time>2014-04-26T12:22:36Z</time>
      </trkpt>
      <trkpt lat="42.765719" lon="0.540123">
        <ele>2166.9</ele>
        <time>2014-04-26T12:22:49Z</time>
      </trkpt>
      <trkpt lat="42.765810" lon="0.540142">
        <ele>2163.2</ele>
        <time>2014-04-26T12:23:01Z</time>
      </trkpt>
      <trkpt lat="42.765869" lon="0.540130">
        <ele>2159.4</ele>
        <time>2014-04-26T12:24:54Z</time>
      </trkpt>
      <trkpt lat="42.765864" lon="0.540151">
        <ele>2159.5</ele>
        <time>2014-04-26T12:25:46Z</time>
      </trkpt>
      <trkpt lat="42.765949" lon="0.540139">
        <ele>2158.1</ele>
        <time>2014-04-26T12:26:00Z</time>
      </trkpt>
      <trkpt lat="42.766049" lon="0.540163">
        <ele>2155.8</ele>
        <time>2014-04-26T12:26:14Z</time>
      </trkpt>
      <trkpt lat="42.766135" lon="0.540203">
        <ele>2154.6</ele>
        <time>2014-04-26T12:26:25Z</time>
      </trkpt>
      <trkpt lat="42.766215" lon="0.540226">
        <ele>2154.2</ele>
        <time>2014-04-26T12:26:44Z</time>
      </trkpt>
      <trkpt lat="42.766284" lon="0.540175">
        <ele>2153.0</ele>
        <time>2014-04-26T12:26:57Z</time>
      </trkpt>
      <trkpt lat="42.766370" lon="0.540206">
        <ele>2148.1</ele>
        <time>2014-04-26T12:27:19Z</time>
      </trkpt>
      <trkpt lat="42.766434" lon="0.540212">
        <ele>2145.9</ele>
        <time>2014-04-26T12:27:33Z</time>
      </trkpt>
      <trkpt lat="42.766508" lon="0.540262">
        <ele>2142.4</ele>
        <time>2014-04-26T12:27:51Z</time>
      </trkpt>
      <trkpt lat="42.766599" lon="0.540260">
        <ele>2139.5</ele>
        <time>2014-04-26T12:28:03Z</time>
      </trkpt>
      <trkpt lat="42.766678" lon="0.540289">
        <ele>2138.0</ele>
        <time>2014-04-26T12:28:16Z</time>
      </trkpt>
      <trkpt lat="42.766779" lon="0.540286">
        <ele>2139.5</ele>
        <time>2014-04-26T12:28:38Z</time>
      </trkpt>
      <trkpt lat="42.766872" lon="0.540312">
        <ele>2139.6</ele>
        <time>2014-04-26T12:28:51Z</time>
      </trkpt>
      <trkpt lat="42.766959" lon="0.540362">
        <ele>2138.6</ele>
        <time>2014-04-26T12:29:03Z</time>
      </trkpt>
      <trkpt lat="42.767037" lon="0.540427">
        <ele>2136.4</ele>
        <time>2014-04-26T12:29:16Z</time>
      </trkpt>
      <trkpt lat="42.767126" lon="0.540461">
        <ele>2133.4</ele>
        <time>2014-04-26T12:29:29Z</time>
      </trkpt>
      <trkpt lat="42.767189" lon="0.540525">
        <ele>2129.7</ele>
        <time>2014-04-26T12:29:55Z</time>
      </trkpt>
      <trkpt lat="42.767264" lon="0.540569">
        <ele>2127.9</ele>
        <time>2014-04-26T12:30:19Z</time>
      </trkpt>
      <trkpt lat="42.767328" lon="0.540663">
        <ele>2125.9</ele>
        <time>2014-04-26T12:30:31Z</time>
      </trkpt>
      <trkpt lat="42.767393" lon="0.540750">
        <ele>2123.5</ele>
        <time>2014-04-26T12:30:43Z</time>
      </trkpt>
      <trkpt lat="42.767459" lon="0.540839">
        <ele>2121.2</ele>
        <time>2014-04-26T12:30:57Z</time>
      </trkpt>
      <trkpt lat="42.767527" lon="0.540913">
        <ele>2118.3</ele>
        <time>2014-04-26T12:31:09Z</time>
      </trkpt>
      <trkpt lat="42.767594" lon="0.541006">
        <ele>2115.9</ele>
        <time>2014-04-26T12:31:21Z</time>
      </trkpt>
      <trkpt lat="42.767670" lon="0.541071">
        <ele>2112.3</ele>
        <time>2014-04-26T12:31:33Z</time>
      </trkpt>
      <trkpt lat="42.767738" lon="0.541160">
        <ele>2109.8</ele>
        <time>2014-04-26T12:31:44Z</time>
      </trkpt>
      <trkpt lat="42.767801" lon="0.541253">
        <ele>2107.8</ele>
        <time>2014-04-26T12:31:54Z</time>
      </trkpt>
      <trkpt lat="42.767847" lon="0.541365">
        <ele>2106.1</ele>
        <time>2014-04-26T12:32:05Z</time>
      </trkpt>
      <trkpt lat="42.767915" lon="0.541452">
        <ele>2100.2</ele>
        <time>2014-04-26T12:53:26Z</time>
      </trkpt>
      <trkpt lat="42.767978" lon="0.541409">
        <ele>2100.4</ele>
        <time>2014-04-26T13:04:08Z</time>
      </trkpt>
      <trkpt lat="42.768044" lon="0.541335">
        <ele>2098.3</ele>
        <time>2014-04-26T13:04:21Z</time>
      </trkpt>
      <trkpt lat="42.768124" lon="0.541328">
        <ele>2095.8</ele>
        <time>2014-04-26T13:04:34Z</time>
      </trkpt>
      <trkpt lat="42.768191" lon="0.541278">
        <ele>2093.1</ele>
        <time>2014-04-26T13:04:47Z</time>
      </trkpt>
      <trkpt lat="42.768252" lon="0.541196">
        <ele>2090.0</ele>
        <time>2014-04-26T13:05:01Z</time>
      </trkpt>
      <trkpt lat="42.768334" lon="0.541171">
        <ele>2086.4</ele>
        <time>2014-04-26T13:05:14Z</time>
      </trkpt>
      <trkpt lat="42.768425" lon="0.541190">
        <ele>2082.3</ele>
        <time>2014-04-26T13:05:26Z</time>
      </trkpt>
      <trkpt lat="42.768501" lon="0.541184">
        <ele>2078.6</ele>
        <time>2014-04-26T13:05:39Z</time>
      </trkpt>
      <trkpt lat="42.768586" lon="0.541232">
        <ele>2074.6</ele>
        <time>2014-04-26T13:05:51Z</time>
      </trkpt>
      <trkpt lat="42.768636" lon="0.541143">
        <ele>2070.5</ele>
        <time>2014-04-26T13:06:03Z</time>
      </trkpt>
      <trkpt lat="42.768694" lon="0.541079">
        <ele>2066.9</ele>
        <time>2014-04-26T13:06:18Z</time>
      </trkpt>
      <trkpt lat="42.768771" lon="0.541072">
        <ele>2063.0</ele>
        <time>2014-04-26T13:06:33Z</time>
      </trkpt>
      <trkpt lat="42.768843" lon="0.541008">
        <ele>2057.6</ele>
        <time>2014-04-26T13:06:49Z</time>
      </trkpt>
      <trkpt lat="42.768913" lon="0.541013">
        <ele>2051.8</ele>
        <time>2014-04-26T13:07:10Z</time>
      </trkpt>
      <trkpt lat="42.768978" lon="0.540969">
        <ele>2049.6</ele>
        <time>2014-04-26T13:07:29Z</time>
      </trkpt>
      <trkpt lat="42.769035" lon="0.540942">
        <ele>2044.8</ele>
        <time>2014-04-26T13:07:43Z</time>
      </trkpt>
      <trkpt lat="42.769109" lon="0.540883">
        <ele>2040.4</ele>
        <time>2014-04-26T13:07:57Z</time>
      </trkpt>
      <trkpt lat="42.769176" lon="0.540873">
        <ele>2032.9</ele>
        <time>2014-04-26T13:08:56Z</time>
      </trkpt>
      <trkpt lat="42.769262" lon="0.540813">
        <ele>2031.8</ele>
        <time>2014-04-26T13:09:41Z</time>
      </trkpt>
      <trkpt lat="42.769344" lon="0.540881">
        <ele>2027.7</ele>
        <time>2014-04-26T13:09:51Z</time>
      </trkpt>
      <trkpt lat="42.769435" lon="0.540908">
        <ele>2024.7</ele>
        <time>2014-04-26T13:10:01Z</time>
      </trkpt>
      <trkpt lat="42.769523" lon="0.540932">
        <ele>2020.9</ele>
        <time>2014-04-26T13:10:11Z</time>
      </trkpt>
      <trkpt lat="42.769613" lon="0.540934">
        <ele>2017.4</ele>
        <time>2014-04-26T13:10:22Z</time>
      </trkpt>
      <trkpt lat="42.769706" lon="0.540929">
        <ele>2013.8</ele>
        <time>2014-04-26T13:10:32Z</time>
      </trkpt>
      <trkpt lat="42.769794" lon="0.540941">
        <ele>2009.7</ele>
        <time>2014-04-26T13:10:42Z</time>
      </trkpt>
      <trkpt lat="42.769872" lon="0.540908">
        <ele>2005.1</ele>
        <time>2014-04-26T13:10:55Z</time>
      </trkpt>
      <trkpt lat="42.769954" lon="0.540926">
        <ele>2001.0</ele>
        <time>2014-04-26T13:11:11Z</time>
      </trkpt>
      <trkpt lat="42.770047" lon="0.540907">
        <ele>1998.7</ele>
        <time>2014-04-26T13:11:23Z</time>
      </trkpt>
      <trkpt lat="42.770136" lon="0.540889">
        <ele>1993.7</ele>
        <time>2014-04-26T13:11:35Z</time>
      </trkpt>
      <trkpt lat="42.770225" lon="0.540887">
        <ele>1988.8</ele>
        <time>2014-04-26T13:11:48Z</time>
      </trkpt>
      <trkpt lat="42.770289" lon="0.540834">
        <ele>1984.0</ele>
        <time>2014-04-26T13:12:01Z</time>
      </trkpt>
      <trkpt lat="42.770366" lon="0.540830">
        <ele>1978.2</ele>
        <time>2014-04-26T13:12:17Z</time>
      </trkpt>
      <trkpt lat="42.770461" lon="0.540836">
        <ele>1973.8</ele>
        <time>2014-04-26T13:12:32Z</time>
      </trkpt>
      <trkpt lat="42.770548" lon="0.540837">
        <ele>1969.3</ele>
        <time>2014-04-26T13:13:19Z</time>
      </trkpt>
      <trkpt lat="42.770634" lon="0.540816">
        <ele>1963.9</ele>
        <time>2014-04-26T13:13:34Z</time>
      </trkpt>
      <trkpt lat="42.770727" lon="0.540812">
        <ele>1959.5</ele>
        <time>2014-04-26T13:13:50Z</time>
      </trkpt>
      <trkpt lat="42.770817" lon="0.540789">
        <ele>1954.4</ele>
        <time>2014-04-26T13:14:05Z</time>
      </trkpt>
      <trkpt lat="42.770915" lon="0.540754">
        <ele>1949.1</ele>
        <time>2014-04-26T13:14:20Z</time>
      </trkpt>
      <trkpt lat="42.770984" lon="0.540688">
        <ele>1943.2</ele>
        <time>2014-04-26T13:14:36Z</time>
      </trkpt>
      <trkpt lat="42.771013" lon="0.540568">
        <ele>1938.1</ele>
        <time>2014-04-26T13:14:51Z</time>
      </trkpt>
      <trkpt lat="42.771076" lon="0.540507">
        <ele>1933.3</ele>
        <time>2014-04-26T13:15:22Z</time>
      </trkpt>
      <trkpt lat="42.771143" lon="0.540430">
        <ele>1928.5</ele>
        <time>2014-04-26T13:15:38Z</time>
      </trkpt>
      <trkpt lat="42.771204" lon="0.540374">
        <ele>1923.3</ele>
        <time>2014-04-26T13:15:56Z</time>
      </trkpt>
      <trkpt lat="42.771242" lon="0.540397">
        <ele>1921.7</ele>
        <time>2014-04-26T13:18:27Z</time>
      </trkpt>
      <trkpt lat="42.771281" lon="0.540381">
        <ele>1919.3</ele>
        <time>2014-04-26T13:19:46Z</time>
      </trkpt>
      <trkpt lat="42.771329" lon="0.540274">
        <ele>1915.2</ele>
        <time>2014-04-26T13:20:00Z</time>
      </trkpt>
      <trkpt lat="42.771394" lon="0.540205">
        <ele>1910.4</ele>
        <time>2014-04-26T13:20:13Z</time>
      </trkpt>
      <trkpt lat="42.771458" lon="0.540109">
        <ele>1904.6</ele>
        <time>2014-04-26T13:20:28Z</time>
      </trkpt>
      <trkpt lat="42.771520" lon="0.540031">
        <ele>1899.6</ele>
        <time>2014-04-26T13:20:40Z</time>
      </trkpt>
      <trkpt lat="42.771568" lon="0.539930">
        <ele>1893.0</ele>
        <time>2014-04-26T13:20:55Z</time>
      </trkpt>
      <trkpt lat="42.771596" lon="0.539816">
        <ele>1886.8</ele>
        <time>2014-04-26T13:21:11Z</time>
      </trkpt>
      <trkpt lat="42.771638" lon="0.539698">
        <ele>1882.3</ele>
        <time>2014-04-26T13:21:25Z</time>
      </trkpt>
      <trkpt lat="42.771729" lon="0.539652">
        <ele>1876.7</ele>
        <time>2014-04-26T13:21:39Z</time>
      </trkpt>
      <trkpt lat="42.771809" lon="0.539593">
        <ele>1871.7</ele>
        <time>2014-04-26T13:21:52Z</time>
      </trkpt>
      <trkpt lat="42.771856" lon="0.539492">
        <ele>1865.3</ele>
        <time>2014-04-26T13:22:08Z</time>
      </trkpt>
      <trkpt lat="42.771870" lon="0.539403">
        <ele>1860.7</ele>
        <time>2014-04-26T13:23:43Z</time>
      </trkpt>
      <trkpt lat="42.771959" lon="0.539337">
        <ele>1855.3</ele>
        <time>2014-04-26T13:24:02Z</time>
      </trkpt>
      <trkpt lat="42.772053" lon="0.539284">
        <ele>1851.1</ele>
        <time>2014-04-26T13:24:14Z</time>
      </trkpt>
      <trkpt lat="42.772123" lon="0.539223">
        <ele>1846.1</ele>
        <time>2014-04-26T13:24:30Z</time>
      </trkpt>
      <trkpt lat="42.772183" lon="0.539146">
        <ele>1841.5</ele>
        <time>2014-04-26T13:24:44Z</time>
      </trkpt>
      <trkpt lat="42.772242" lon="0.539044">
        <ele>1836.6</ele>
        <time>2014-04-26T13:24:58Z</time>
      </trkpt>
      <trkpt lat="42.772304" lon="0.538940">
        <ele>1830.5</ele>
        <time>2014-04-26T13:25:13Z</time>
      </trkpt>
      <trkpt lat="42.772371" lon="0.538861">
        <ele>1825.9</ele>
        <time>2014-04-26T13:25:26Z</time>
      </trkpt>
      <trkpt lat="42.772396" lon="0.538760">
        <ele>1819.4</ele>
        <time>2014-04-26T13:25:40Z</time>
      </trkpt>
      <trkpt lat="42.772464" lon="0.538683">
        <ele>1815.0</ele>
        <time>2014-04-26T13:25:51Z</time>
      </trkpt>
      <trkpt lat="42.772531" lon="0.538579">
        <ele>1808.5</ele>
        <time>2014-04-26T13:26:03Z</time>
      </trkpt>
      <trkpt lat="42.772596" lon="0.538480">
        <ele>1802.9</ele>
        <time>2014-04-26T13:26:14Z</time>
      </trkpt>
      <trkpt lat="42.772658" lon="0.538393">
        <ele>1796.9</ele>
        <time>2014-04-26T13:26:26Z</time>
      </trkpt>
      <trkpt lat="42.772713" lon="0.538297">
        <ele>1791.2</ele>
        <time>2014-04-26T13:26:40Z</time>
      </trkpt>
      <trkpt lat="42.772746" lon="0.538282">
        <ele>1785.7</ele>
        <time>2014-04-26T13:30:00Z</time>
      </trkpt>
      <trkpt lat="42.772758" lon="0.538270">
        <ele>1786.5</ele>
        <time>2014-04-26T13:33:23Z</time>
      </trkpt>
      <trkpt lat="42.772837" lon="0.538184">
        <ele>1785.1</ele>
        <time>2014-04-26T13:34:06Z</time>
      </trkpt>
      <trkpt lat="42.772889" lon="0.538089">
        <ele>1781.7</ele>
        <time>2014-04-26T13:34:16Z</time>
      </trkpt>
      <trkpt lat="42.772942" lon="0.537990">
        <ele>1777.6</ele>
        <time>2014-04-26T13:34:26Z</time>
      </trkpt>
      <trkpt lat="42.773026" lon="0.537943">
        <ele>1773.9</ele>
        <time>2014-04-26T13:34:36Z</time>
      </trkpt>
      <trkpt lat="42.773103" lon="0.537867">
        <ele>1768.8</ele>
        <time>2014-04-26T13:34:48Z</time>
      </trkpt>
      <trkpt lat="42.773169" lon="0.537787">
        <ele>1763.6</ele>
        <time>2014-04-26T13:35:01Z</time>
      </trkpt>
      <trkpt lat="42.773211" lon="0.537678">
        <ele>1758.1</ele>
        <time>2014-04-26T13:35:15Z</time>
      </trkpt>
      <trkpt lat="42.773255" lon="0.537578">
        <ele>1754.0</ele>
        <time>2014-04-26T13:35:27Z</time>
      </trkpt>
      <trkpt lat="42.773323" lon="0.537507">
        <ele>1749.7</ele>
        <time>2014-04-26T13:35:39Z</time>
      </trkpt>
      <trkpt lat="42.773397" lon="0.537396">
        <ele>1744.2</ele>
        <time>2014-04-26T13:35:51Z</time>
      </trkpt>
      <trkpt lat="42.773446" lon="0.537293">
        <ele>1739.7</ele>
        <time>2014-04-26T13:36:02Z</time>
      </trkpt>
      <trkpt lat="42.773526" lon="0.537218">
        <ele>1735.4</ele>
        <time>2014-04-26T13:36:13Z</time>
      </trkpt>
      <trkpt lat="42.773584" lon="0.537087">
        <ele>1731.6</ele>
        <time>2014-04-26T13:36:25Z</time>
      </trkpt>
      <trkpt lat="42.773626" lon="0.536975">
        <ele>1728.4</ele>
        <time>2014-04-26T13:36:35Z</time>
      </trkpt>
      <trkpt lat="42.773685" lon="0.536887">
        <ele>1725.4</ele>
        <time>2014-04-26T13:36:45Z</time>
      </trkpt>
      <trkpt lat="42.773754" lon="0.536818">
        <ele>1722.2</ele>
        <time>2014-04-26T13:36:55Z</time>
      </trkpt>
      <trkpt lat="42.773806" lon="0.536720">
        <ele>1719.3</ele>
        <time>2014-04-26T13:37:04Z</time>
      </trkpt>
      <trkpt lat="42.773869" lon="0.536641">
        <ele>1716.7</ele>
        <time>2014-04-26T13:37:12Z</time>
      </trkpt>
      <trkpt lat="42.773924" lon="0.536535">
        <ele>1712.8</ele>
        <time>2014-04-26T13:37:23Z</time>
      </trkpt>
      <trkpt lat="42.774005" lon="0.536451">
        <ele>1709.4</ele>
        <time>2014-04-26T13:37:35Z</time>
      </trkpt>
      <trkpt lat="42.774053" lon="0.536328">
        <ele>1706.4</ele>
        <time>2014-04-26T13:37:46Z</time>
      </trkpt>
      <trkpt lat="42.774099" lon="0.536233">
        <ele>1703.4</ele>
        <time>2014-04-26T13:37:57Z</time>
      </trkpt>
      <trkpt lat="42.774147" lon="0.536127">
        <ele>1700.6</ele>
        <time>2014-04-26T13:38:07Z</time>
      </trkpt>
      <trkpt lat="42.774198" lon="0.536035">
        <ele>1697.7</ele>
        <time>2014-04-26T13:38:18Z</time>
      </trkpt>
      <trkpt lat="42.774243" lon="0.535937">
        <ele>1694.8</ele>
        <time>2014-04-26T13:38:30Z</time>
      </trkpt>
      <trkpt lat="42.774294" lon="0.535857">
        <ele>1691.1</ele>
        <time>2014-04-26T13:38:45Z</time>
      </trkpt>
      <trkpt lat="42.774348" lon="0.535754">
        <ele>1688.3</ele>
        <time>2014-04-26T13:38:56Z</time>
      </trkpt>
      <trkpt lat="42.774420" lon="0.535733">
        <ele>1685.1</ele>
        <time>2014-04-26T13:39:15Z</time>
      </trkpt>
      <trkpt lat="42.774484" lon="0.535666">
        <ele>1685.1</ele>
        <time>2014-04-26T13:39:25Z</time>
      </trkpt>
      <trkpt lat="42.774554" lon="0.535567">
        <ele>1681.0</ele>
        <time>2014-04-26T13:39:37Z</time>
      </trkpt>
      <trkpt lat="42.774645" lon="0.535524">
        <ele>1676.6</ele>
        <time>2014-04-26T13:39:53Z</time>
      </trkpt>
      <trkpt lat="42.774738" lon="0.535433">
        <ele>1674.8</ele>
        <time>2014-04-26T13:40:03Z</time>
      </trkpt>
      <trkpt lat="42.774783" lon="0.535289">
        <ele>1670.2</ele>
        <time>2014-04-26T13:40:16Z</time>
      </trkpt>
      <trkpt lat="42.774848" lon="0.535170">
        <ele>1667.4</ele>
        <time>2014-04-26T13:40:26Z</time>
      </trkpt>
      <trkpt lat="42.774880" lon="0.535035">
        <ele>1664.5</ele>
        <time>2014-04-26T13:40:36Z</time>
      </trkpt>
      <trkpt lat="42.774865" lon="0.534940">
        <ele>1657.8</ele>
        <time>2014-04-26T13:40:54Z</time>
      </trkpt>
      <trkpt lat="42.774875" lon="0.534793">
        <ele>1651.7</ele>
        <time>2014-04-26T13:41:10Z</time>
      </trkpt>
      <trkpt lat="42.774860" lon="0.534683">
        <ele>1647.6</ele>
        <time>2014-04-26T13:41:22Z</time>
      </trkpt>
      <trkpt lat="42.774885" lon="0.534683">
        <ele>1645.4</ele>
        <time>2014-04-26T13:42:03Z</time>
      </trkpt>
      <trkpt lat="42.774909" lon="0.534536">
        <ele>1643.1</ele>
        <time>2014-04-26T13:42:25Z</time>
      </trkpt>
      <trkpt lat="42.774975" lon="0.534424">
        <ele>1637.7</ele>
        <time>2014-04-26T13:42:39Z</time>
      </trkpt>
      <trkpt lat="42.774987" lon="0.534372">
        <ele>1633.8</ele>
        <time>2014-04-26T13:42:52Z</time>
      </trkpt>
      <trkpt lat="42.775001" lon="0.534275">
        <ele>1627.3</ele>
        <time>2014-04-26T13:43:12Z</time>
      </trkpt>
      <trkpt lat="42.774971" lon="0.534184">
        <ele>1623.1</ele>
        <time>2014-04-26T13:43:27Z</time>
      </trkpt>
      <trkpt lat="42.774986" lon="0.534097">
        <ele>1616.4</ele>
        <time>2014-04-26T13:44:49Z</time>
      </trkpt>
      <trkpt lat="42.775013" lon="0.533979">
        <ele>1610.9</ele>
        <time>2014-04-26T13:45:06Z</time>
      </trkpt>
      <trkpt lat="42.775056" lon="0.533868">
        <ele>1607.4</ele>
        <time>2014-04-26T13:45:19Z</time>
      </trkpt>
      <trkpt lat="42.775114" lon="0.533787">
        <ele>1602.6</ele>
        <time>2014-04-26T13:45:39Z</time>
      </trkpt>
      <trkpt lat="42.775184" lon="0.533745">
        <ele>1599.4</ele>
        <time>2014-04-26T13:45:59Z</time>
      </trkpt>
      <trkpt lat="42.775185" lon="0.533656">
        <ele>1598.2</ele>
        <time>2014-04-26T13:46:36Z</time>
      </trkpt>
      <trkpt lat="42.775208" lon="0.533574">
        <ele>1593.2</ele>
        <time>2014-04-26T13:46:52Z</time>
      </trkpt>
      <trkpt lat="42.775238" lon="0.533465">
        <ele>1587.8</ele>
        <time>2014-04-26T13:47:08Z</time>
      </trkpt>
      <trkpt lat="42.775266" lon="0.533349">
        <ele>1583.2</ele>
        <time>2014-04-26T13:47:25Z</time>
      </trkpt>
      <trkpt lat="42.775240" lon="0.533256">
        <ele>1577.8</ele>
        <time>2014-04-26T13:47:42Z</time>
      </trkpt>
      <trkpt lat="42.775222" lon="0.533132">
        <ele>1572.1</ele>
        <time>2014-04-26T13:47:56Z</time>
      </trkpt>
      <trkpt lat="42.775252" lon="0.533023">
        <ele>1538.3</ele>
        <time>2014-04-26T13:48:16Z</time>
      </trkpt>
      <trkpt lat="42.775326" lon="0.532921">
        <ele>1532.0</ele>
        <time>2014-04-26T13:48:43Z</time>
      </trkpt>
      <trkpt lat="42.775400" lon="0.532741">
        <ele>1522.2</ele>
        <time>2014-04-26T13:50:50Z</time>
      </trkpt>
      <trkpt lat="42.775496" lon="0.532679">
        <ele>1547.1</ele>
        <time>2014-04-26T13:51:07Z</time>
      </trkpt>
      <trkpt lat="42.775593" lon="0.532605">
        <ele>1543.6</ele>
        <time>2014-04-26T13:51:19Z</time>
      </trkpt>
      <trkpt lat="42.775706" lon="0.532587">
        <ele>1540.9</ele>
        <time>2014-04-26T13:51:30Z</time>
      </trkpt>
      <trkpt lat="42.775800" lon="0.532547">
        <ele>1539.2</ele>
        <time>2014-04-26T13:51:43Z</time>
      </trkpt>
      <trkpt lat="42.775895" lon="0.532474">
        <ele>1537.3</ele>
        <time>2014-04-26T13:51:55Z</time>
      </trkpt>
      <trkpt lat="42.775969" lon="0.532369">
        <ele>1534.0</ele>
        <time>2014-04-26T13:52:08Z</time>
      </trkpt>
      <trkpt lat="42.776040" lon="0.532295">
        <ele>1529.6</ele>
        <time>2014-04-26T13:52:20Z</time>
      </trkpt>
      <trkpt lat="42.776157" lon="0.532256">
        <ele>1526.1</ele>
        <time>2014-04-26T13:52:31Z</time>
      </trkpt>
      <trkpt lat="42.776246" lon="0.532198">
        <ele>1523.1</ele>
        <time>2014-04-26T13:52:43Z</time>
      </trkpt>
      <trkpt lat="42.776308" lon="0.532090">
        <ele>1519.1</ele>
        <time>2014-04-26T13:52:56Z</time>
      </trkpt>
      <trkpt lat="42.776391" lon="0.531974">
        <ele>1516.7</ele>
        <time>2014-04-26T13:53:07Z</time>
      </trkpt>
      <trkpt lat="42.776412" lon="0.532000">
        <ele>1513.8</ele>
        <time>2014-04-26T13:53:49Z</time>
      </trkpt>
      <trkpt lat="42.776496" lon="0.531928">
        <ele>1513.0</ele>
        <time>2014-04-26T13:54:06Z</time>
      </trkpt>
      <trkpt lat="42.776593" lon="0.531906">
        <ele>1510.1</ele>
        <time>2014-04-26T13:54:44Z</time>
      </trkpt>
      <trkpt lat="42.776686" lon="0.531927">
        <ele>1508.1</ele>
        <time>2014-04-26T13:54:53Z</time>
      </trkpt>
      <trkpt lat="42.776773" lon="0.531911">
        <ele>1504.4</ele>
        <time>2014-04-26T13:55:05Z</time>
      </trkpt>
      <trkpt lat="42.776848" lon="0.531867">
        <ele>1502.3</ele>
        <time>2014-04-26T13:55:20Z</time>
      </trkpt>
      <trkpt lat="42.777063" lon="0.531741">
        <ele>1458.9</ele>
        <time>2014-04-26T13:55:28Z</time>
      </trkpt>
      <trkpt lat="42.777327" lon="0.531656">
        <ele>1449.8</ele>
        <time>2014-04-26T13:55:41Z</time>
      </trkpt>
      <trkpt lat="42.777521" lon="0.531587">
        <ele>1444.7</ele>
        <time>2014-04-26T14:04:26Z</time>
      </trkpt>
      <trkpt lat="42.777759" lon="0.531455">
        <ele>1439.2</ele>
        <time>2014-04-26T14:04:36Z</time>
      </trkpt>
      <trkpt lat="42.777849" lon="0.531497">
        <ele>1436.7</ele>
        <time>2014-04-26T14:04:48Z</time>
      </trkpt>
      <trkpt lat="42.777980" lon="0.531459">
        <ele>1433.5</ele>
        <time>2014-04-26T14:04:57Z</time>
      </trkpt>
      <trkpt lat="42.778086" lon="0.531436">
        <ele>1430.9</ele>
        <time>2014-04-26T14:05:04Z</time>
      </trkpt>
      <trkpt lat="42.778177" lon="0.531371">
        <ele>1428.7</ele>
        <time>2014-04-26T14:05:17Z</time>
      </trkpt>
      <trkpt lat="42.778226" lon="0.531337">
        <ele>1427.6</ele>
        <time>2014-04-26T14:05:27Z</time>
      </trkpt>
      <trkpt lat="42.778327" lon="0.531285">
        <ele>1425.1</ele>
        <time>2014-04-26T14:05:35Z</time>
      </trkpt>
      <trkpt lat="42.778456" lon="0.531252">
        <ele>1423.4</ele>
        <time>2014-04-26T14:05:44Z</time>
      </trkpt>
      <trkpt lat="42.778515" lon="0.531230">
        <ele>1463.4</ele>
        <time>2014-04-26T14:05:52Z</time>
      </trkpt>
    </trkseg>
  </trk>
</gpx>

